Wetterdaten: Freitag, 30.05.2014
Datum Zeit Temp. Aussen +5cm Feuchte Auss Luftdruck Regen Sonnenschein Regendauer UV Solar Windben
30.05.2014 00:00 10,2 C 8,9 C 95 % 1019,6 hPa 0,0 l/m 0 min 0 min 0,0 UV-I 0 W/m 2,6 km/h (1 Bft)
30.05.2014 00:02 10,2 C 8,9 C 95 % 1019,6 hPa 0,0 l/m 0 min 0 min 0,0 UV-I 0 W/m 0,0 km/h (0 Bft)
30.05.2014 00:06 10,2 C 8,9 C 95 % 1019,6 hPa 0,0 l/m 0 min 0 min 0,0 UV-I 0 W/m 0,0 km/h (0 Bft)
30.05.2014 00:08 10,2 C 8,9 C 95 % 1019,6 hPa 0,0 l/m 0 min 0 min 0,0 UV-I 0 W/m 0,0 km/h (0 Bft)
30.05.2014 00:10 10,2 C 8,9 C 95 % 1019,6 hPa 0,0 l/m 0 min 0 min 0,0 UV-I 0 W/m 0,0 km/h (0 Bft)
30.05.2014 00:12 10,2 C 8,9 C 95 % 1019,6 hPa 0,0 l/m 0 min 0 min 0,0 UV-I 0 W/m 0,0 km/h (0 Bft)
30.05.2014 00:14 10,2 C 8,9 C 95 % 1019,6 hPa 0,0 l/m 0 min 0 min 0,0 UV-I 0 W/m 0,0 km/h (0 Bft)
30.05.2014 00:16 10,2 C 8,9 C 95 % 1019,6 hPa 0,0 l/m 0 min 0 min 0,0 UV-I 0 W/m 0,0 km/h (0 Bft)
30.05.2014 00:18 10,1 C 8,9 C 95 % 1019,7 hPa 0,0 l/m 0 min 0 min 0,0 UV-I 0 W/m 0,0 km/h (0 Bft)
30.05.2014 00:20 10,1 C 8,9 C 95 % 1019,7 hPa 0,0 l/m 0 min 0 min 0,0 UV-I 0 W/m 0,0 km/h (0 Bft)
30.05.2014 00:22 10,1 C 8,9 C 95 % 1019,7 hPa 0,0 l/m 0 min 0 min 0,0 UV-I 0 W/m 0,0 km/h (0 Bft)
30.05.2014 00:24 10,1 C 8,9 C 95 % 1019,7 hPa 0,0 l/m 0 min 0 min 0,0 UV-I 0 W/m 0,0 km/h (0 Bft)
30.05.2014 00:26 10,1 C 8,9 C 95 % 1019,7 hPa 0,0 l/m 0 min 0 min 0,0 UV-I 0 W/m 0,0 km/h (0 Bft)
30.05.2014 00:28 10,1 C 8,9 C 95 % 1019,7 hPa 0,0 l/m 0 min 0 min 0,0 UV-I 0 W/m 0,0 km/h (0 Bft)
30.05.2014 00:30 10,1 C 8,9 C 95 % 1019,7 hPa 0,0 l/m 0 min 0 min 0,0 UV-I 0 W/m 0,0 km/h (0 Bft)
30.05.2014 00:32 10,1 C 8,9 C 95 % 1019,6 hPa 0,0 l/m 0 min 0 min 0,0 UV-I 0 W/m 0,0 km/h (0 Bft)
30.05.2014 00:34 10,1 C 8,9 C 95 % 1019,7 hPa 0,0 l/m 0 min 0 min 0,0 UV-I 0 W/m 0,0 km/h (0 Bft)
30.05.2014 00:36 10,1 C 8,9 C 95 % 1019,7 hPa 0,0 l/m 0 min 0 min 0,0 UV-I 0 W/m 0,0 km/h (0 Bft)
30.05.2014 00:38 10,1 C 8,9 C 95 % 1019,6 hPa 0,0 l/m 0 min 0 min 0,0 UV-I 0 W/m 0,0 km/h (0 Bft)
30.05.2014 00:40 10,1 C 8,9 C 95 % 1019,7 hPa 0,0 l/m 0 min 0 min 0,0 UV-I 0 W/m 0,0 km/h (0 Bft)
30.05.2014 00:42 10,1 C 8,9 C 95 % 1019,6 hPa 0,0 l/m 0 min 0 min 0,0 UV-I 0 W/m 0,0 km/h (0 Bft)
30.05.2014 00:44 10,1 C 8,9 C 95 % 1019,6 hPa 0,0 l/m 0 min 0 min 0,0 UV-I 0 W/m 0,0 km/h (0 Bft)
30.05.2014 00:46 10,1 C 8,9 C 95 % 1019,6 hPa 0,0 l/m 0 min 0 min 0,0 UV-I 0 W/m 2,6 km/h (1 Bft)
30.05.2014 00:48 10,1 C 8,9 C 95 % 1019,6 hPa 0,0 l/m 0 min 0 min 0,0 UV-I 0 W/m 0,0 km/h (0 Bft)
30.05.2014 00:50 10,1 C 8,9 C 95 % 1019,6 hPa 0,0 l/m 0 min 0 min 0,0 UV-I 0 W/m 0,0 km/h (0 Bft)
30.05.2014 00:52 10,1 C 8,9 C 95 % 1019,6 hPa 0,0 l/m 0 min 0 min 0,0 UV-I 0 W/m 0,0 km/h (0 Bft)
30.05.2014 00:54 10,1 C 8,9 C 95 % 1019,6 hPa 0,0 l/m 0 min 0 min 0,0 UV-I 0 W/m 2,6 km/h (1 Bft)
30.05.2014 00:56 10,1 C 8,9 C 95 % 1019,6 hPa 0,0 l/m 0 min 0 min 0,0 UV-I 0 W/m 0,0 km/h (0 Bft)
30.05.2014 00:58 10,1 C 8,9 C 95 % 1019,5 hPa 0,0 l/m 0 min 0 min 0,0 UV-I 0 W/m 0,0 km/h (0 Bft)
30.05.2014 01:00 10,1 C 8,9 C 95 % 1019,5 hPa 0,0 l/m 0 min 0 min 0,0 UV-I 0 W/m 0,0 km/h (0 Bft)
30.05.2014 01:02 10,1 C 8,9 C 95 % 1019,5 hPa 0,0 l/m 0 min 0 min 0,0 UV-I 0 W/m 0,0 km/h (0 Bft)
30.05.2014 01:06 10,1 C 8,9 C 95 % 1019,5 hPa 0,0 l/m 0 min 0 min 0,0 UV-I 0 W/m 0,0 km/h (0 Bft)
30.05.2014 01:08 10,1 C 8,9 C 95 % 1019,5 hPa 0,0 l/m 0 min 0 min 0,0 UV-I 0 W/m 0,0 km/h (0 Bft)
30.05.2014 01:10 10,1 C 8,9 C 95 % 1019,6 hPa 0,0 l/m 0 min 0 min 0,0 UV-I 0 W/m 0,0 km/h (0 Bft)
30.05.2014 01:12 10,1 C 8,9 C 95 % 1019,5 hPa 0,0 l/m 0 min 0 min 0,0 UV-I 0 W/m 0,0 km/h (0 Bft)
30.05.2014 01:14 10,1 C 8,9 C 94 % 1019,5 hPa 0,0 l/m 0 min 0 min 0,0 UV-I 0 W/m 2,6 km/h (1 Bft)
30.05.2014 01:16 10,1 C 8,9 C 94 % 1019,5 hPa 0,0 l/m 0 min 0 min 0,0 UV-I 0 W/m 0,0 km/h (0 Bft)
30.05.2014 01:18 10,1 C 8,9 C 94 % 1019,5 hPa 0,0 l/m 0 min 0 min 0,0 UV-I 0 W/m 0,0 km/h (0 Bft)
30.05.2014 01:20 10,1 C 8,9 C 94 % 1019,5 hPa 0,0 l/m 0 min 0 min 0,0 UV-I 0 W/m 0,0 km/h (0 Bft)
30.05.2014 01:22 10,1 C 8,9 C 94 % 1019,5 hPa 0,0 l/m 0 min 0 min 0,0 UV-I 0 W/m 0,0 km/h (0 Bft)
30.05.2014 01:24 10,1 C 8,9 C 94 % 1019,5 hPa 0,0 l/m 0 min 0 min 0,0 UV-I 0 W/m 0,0 km/h (0 Bft)
30.05.2014 01:26 10,1 C 8,9 C 94 % 1019,5 hPa 0,0 l/m 0 min 0 min 0,0 UV-I 0 W/m 5,1 km/h (1 Bft)
30.05.2014 01:28 10,1 C 8,9 C 94 % 1019,5 hPa 0,0 l/m 0 min 0 min 0,0 UV-I 0 W/m 0,0 km/h (0 Bft)
30.05.2014 01:30 10,1 C 8,9 C 94 % 1019,5 hPa 0,0 l/m 0 min 0 min 0,0 UV-I 0 W/m 0,0 km/h (0 Bft)
30.05.2014 01:32 10,1 C 8,9 C 94 % 1019,5 hPa 0,0 l/m 0 min 0 min 0,0 UV-I 0 W/m 0,0 km/h (0 Bft)
30.05.2014 01:34 10,1 C 8,9 C 94 % 1019,5 hPa 0,0 l/m 0 min 0 min 0,0 UV-I 0 W/m 0,0 km/h (0 Bft)
30.05.2014 01:36 10,1 C 8,9 C 94 % 1019,5 hPa 0,0 l/m 0 min 0 min 0,0 UV-I 0 W/m 0,0 km/h (0 Bft)
30.05.2014 01:38 10,1 C 8,9 C 94 % 1019,5 hPa 0,0 l/m 0 min 0 min 0,0 UV-I 0 W/m 5,1 km/h (1 Bft)
30.05.2014 01:40 10,1 C 8,9 C 94 % 1019,4 hPa 0,0 l/m 0 min 0 min 0,0 UV-I 0 W/m 5,1 km/h (1 Bft)
30.05.2014 01:42 10,1 C 8,9 C 94 % 1019,4 hPa 0,0 l/m 0 min 0 min 0,0 UV-I 0 W/m 0,0 km/h (0 Bft)
30.05.2014 01:44 10,1 C 8,9 C 94 % 1019,4 hPa 0,0 l/m 0 min 0 min 0,0 UV-I 0 W/m 0,0 km/h (0 Bft)
30.05.2014 01:46 10,1 C 8,9 C 94 % 1019,4 hPa 0,0 l/m 0 min 0 min 0,0 UV-I 0 W/m 2,6 km/h (1 Bft)
30.05.2014 01:48 10,1 C 8,9 C 94 % 1019,5 hPa 0,0 l/m 0 min 0 min 0,0 UV-I 0 W/m 5,1 km/h (1 Bft)
30.05.2014 01:50 10,1 C 8,9 C 94 % 1019,5 hPa 0,0 l/m 0 min 0 min 0,0 UV-I 0 W/m 0,0 km/h (0 Bft)
30.05.2014 01:52 10,1 C 8,9 C 94 % 1019,5 hPa 0,0 l/m 0 min 0 min 0,0 UV-I 0 W/m 10,3 km/h (2 Bft)
30.05.2014 01:54 10,1 C 8,9 C 94 % 1019,5 hPa 0,0 l/m 0 min 0 min 0,0 UV-I 0 W/m 5,1 km/h (1 Bft)
30.05.2014 01:56 10,1 C 8,9 C 94 % 1019,5 hPa 0,0 l/m 0 min 0 min 0,0 UV-I 0 W/m 0,0 km/h (0 Bft)
30.05.2014 01:58 10,1 C 8,9 C 94 % 1019,5 hPa 0,0 l/m 0 min 0 min 0,0 UV-I 0 W/m 0,0 km/h (0 Bft)
30.05.2014 02:00 10,1 C 8,9 C 94 % 1019,4 hPa 0,0 l/m 0 min 0 min 0,0 UV-I 0 W/m 0,0 km/h (0 Bft)
30.05.2014 02:02 10,1 C 8,9 C 94 % 1019,5 hPa 0,0 l/m 0 min 0 min 0,0 UV-I 0 W/m 0,0 km/h (0 Bft)
30.05.2014 02:06 10,0 C 8,9 C 94 % 1019,5 hPa 0,0 l/m 0 min 0 min 0,0 UV-I 0 W/m 10,3 km/h (2 Bft)
30.05.2014 02:08 10,1 C 8,9 C 94 % 1019,5 hPa 0,0 l/m 0 min 0 min 0,0 UV-I 0 W/m 0,0 km/h (0 Bft)
30.05.2014 02:10 10,1 C 8,9 C 94 % 1019,4 hPa 0,0 l/m 0 min 0 min 0,0 UV-I 0 W/m 0,0 km/h (0 Bft)
30.05.2014 02:12 10,1 C 8,9 C 94 % 1019,5 hPa 0,0 l/m 0 min 0 min 0,0 UV-I 0 W/m 0,0 km/h (0 Bft)
30.05.2014 02:14 10,1 C 8,9 C 94 % 1019,5 hPa 0,0 l/m 0 min 0 min 0,0 UV-I 0 W/m 0,0 km/h (0 Bft)
30.05.2014 02:16 10,1 C 8,9 C 94 % 1019,5 hPa 0,0 l/m 0 min 0 min 0,0 UV-I 0 W/m 0,0 km/h (0 Bft)
30.05.2014 02:18 10,1 C 8,9 C 94 % 1019,5 hPa 0,0 l/m 0 min 0 min 0,0 UV-I 0 W/m 0,0 km/h (0 Bft)
30.05.2014 02:20 10,1 C 8,9 C 94 % 1019,5 hPa 0,0 l/m 0 min 0 min 0,0 UV-I 0 W/m 0,0 km/h (0 Bft)
30.05.2014 02:22 10,1 C 8,9 C 94 % 1019,5 hPa 0,0 l/m 0 min 0 min 0,0 UV-I 0 W/m 0,0 km/h (0 Bft)
30.05.2014 02:24 10,1 C 8,9 C 94 % 1019,5 hPa 0,0 l/m 0 min 0 min 0,0 UV-I 0 W/m 0,0 km/h (0 Bft)
30.05.2014 02:26 10,1 C 8,9 C 94 % 1019,4 hPa 0,0 l/m 0 min 0 min 0,0 UV-I 0 W/m 0,0 km/h (0 Bft)
30.05.2014 02:28 10,1 C 8,9 C 94 % 1019,5 hPa 0,0 l/m 0 min 0 min 0,0 UV-I 0 W/m 5,1 km/h (1 Bft)
30.05.2014 02:30 10,1 C 8,9 C 94 % 1019,5 hPa 0,0 l/m 0 min 0 min 0,0 UV-I 0 W/m 0,0 km/h (0 Bft)
30.05.2014 02:32 10,1 C 8,9 C 94 % 1019,5 hPa 0,0 l/m 0 min 0 min 0,0 UV-I 0 W/m 0,0 km/h (0 Bft)
30.05.2014 02:34 10,1 C 8,9 C 94 % 1019,4 hPa 0,0 l/m 0 min 0 min 0,0 UV-I 0 W/m 0,0 km/h (0 Bft)
30.05.2014 02:36 10,1 C 8,9 C 94 % 1019,4 hPa 0,0 l/m 0 min 0 min 0,0 UV-I 0 W/m 0,0 km/h (0 Bft)
30.05.2014 02:38 10,1 C 8,9 C 94 % 1019,4 hPa 0,0 l/m 0 min 0 min 0,0 UV-I 0 W/m 0,0 km/h (0 Bft)
30.05.2014 02:40 10,1 C 8,9 C 94 % 1019,5 hPa 0,0 l/m 0 min 0 min 0,0 UV-I 0 W/m 0,0 km/h (0 Bft)
30.05.2014 02:42 10,1 C 8,9 C 94 % 1019,5 hPa 0,0 l/m 0 min 0 min 0,0 UV-I 0 W/m 0,0 km/h (0 Bft)
30.05.2014 02:44 10,1 C 8,9 C 94 % 1019,5 hPa 0,0 l/m 0 min 0 min 0,0 UV-I 0 W/m 0,0 km/h (0 Bft)
30.05.2014 02:46 10,1 C 8,9 C 94 % 1019,5 hPa 0,0 l/m 0 min 0 min 0,0 UV-I 0 W/m 0,0 km/h (0 Bft)
30.05.2014 02:48 10,1 C 8,9 C 94 % 1019,5 hPa 0,0 l/m 0 min 0 min 0,0 UV-I 0 W/m 0,0 km/h (0 Bft)
30.05.2014 02:50 10,1 C 8,9 C 94 % 1019,6 hPa 0,0 l/m 0 min 0 min 0,0 UV-I 0 W/m 7,7 km/h (2 Bft)
30.05.2014 02:52 10,1 C 8,9 C 94 % 1019,6 hPa 0,0 l/m 0 min 0 min 0,0 UV-I 0 W/m 7,7 km/h (2 Bft)
30.05.2014 02:54 10,1 C 8,9 C 94 % 1019,6 hPa 0,0 l/m 0 min 0 min 0,0 UV-I 0 W/m 0,0 km/h (0 Bft)
30.05.2014 02:56 10,0 C 8,9 C 94 % 1019,6 hPa 0,0 l/m 0 min 0 min 0,0 UV-I 0 W/m 0,0 km/h (0 Bft)
30.05.2014 02:58 10,0 C 8,9 C 94 % 1019,5 hPa 0,0 l/m 0 min 0 min 0,0 UV-I 0 W/m 0,0 km/h (0 Bft)
30.05.2014 03:00 10,1 C 8,9 C 94 % 1019,6 hPa 0,0 l/m 0 min 0 min 0,0 UV-I 0 W/m 0,0 km/h (0 Bft)
30.05.2014 03:02 10,0 C 8,9 C 94 % 1019,6 hPa 0,0 l/m 0 min 0 min 0,0 UV-I 0 W/m 0,0 km/h (0 Bft)
30.05.2014 03:06 10,0 C 8,9 C 94 % 1019,6 hPa 0,0 l/m 0 min 0 min 0,0 UV-I 0 W/m 2,6 km/h (1 Bft)
30.05.2014 03:08 10,0 C 8,9 C 94 % 1019,6 hPa 0,0 l/m 0 min 0 min 0,0 UV-I 0 W/m 0,0 km/h (0 Bft)
30.05.2014 03:10 10,0 C 8,9 C 94 % 1019,6 hPa 0,0 l/m 0 min 0 min 0,0 UV-I 0 W/m 0,0 km/h (0 Bft)
30.05.2014 03:12 10,0 C 8,9 C 94 % 1019,6 hPa 0,0 l/m 0 min 0 min 0,0 UV-I 0 W/m 2,6 km/h (1 Bft)
30.05.2014 03:14 10,0 C 8,9 C 94 % 1019,7 hPa 0,0 l/m 0 min 0 min 0,0 UV-I 0 W/m 0,0 km/h (0 Bft)
30.05.2014 03:16 10,0 C 8,9 C 94 % 1019,7 hPa 0,0 l/m 0 min 0 min 0,0 UV-I 0 W/m 0,0 km/h (0 Bft)
30.05.2014 03:18 10,0 C 8,9 C 94 % 1019,6 hPa 0,0 l/m 0 min 0 min 0,0 UV-I 0 W/m 7,7 km/h (2 Bft)
30.05.2014 03:20 10,0 C 8,9 C 94 % 1019,6 hPa 0,0 l/m 0 min 0 min 0,0 UV-I 0 W/m 0,0 km/h (0 Bft)
30.05.2014 03:22 10,0 C 8,9 C 94 % 1019,6 hPa 0,0 l/m 0 min 0 min 0,0 UV-I 0 W/m 5,1 km/h (1 Bft)
30.05.2014 03:24 10,0 C 8,9 C 94 % 1019,6 hPa 0,0 l/m 0 min 0 min 0,0 UV-I 0 W/m 0,0 km/h (0 Bft)
30.05.2014 03:26 10,0 C 8,9 C 94 % 1019,6 hPa 0,0 l/m 0 min 0 min 0,0 UV-I 0 W/m 0,0 km/h (0 Bft)
30.05.2014 03:28 10,0 C 8,9 C 94 % 1019,6 hPa 0,0 l/m 0 min 0 min 0,0 UV-I 0 W/m 0,0 km/h (0 Bft)
30.05.2014 03:30 10,0 C 8,9 C 94 % 1019,6 hPa 0,0 l/m 0 min 0 min 0,0 UV-I 0 W/m 2,6 km/h (1 Bft)
30.05.2014 03:32 9,9 C 8,9 C 94 % 1019,6 hPa 0,0 l/m 0 min 0 min 0,0 UV-I 0 W/m 0,0 km/h (0 Bft)
30.05.2014 03:34 9,9 C 8,9 C 94 % 1019,6 hPa 0,0 l/m 0 min 0 min 0,0 UV-I 0 W/m 0,0 km/h (0 Bft)
30.05.2014 03:36 9,9 C 8,9 C 94 % 1019,7 hPa 0,0 l/m 0 min 0 min 0,0 UV-I 0 W/m 0,0 km/h (0 Bft)
30.05.2014 03:38 10,0 C 8,9 C 94 % 1019,6 hPa 0,0 l/m 0 min 0 min 0,0 UV-I 0 W/m 0,0 km/h (0 Bft)
30.05.2014 03:40 9,9 C 8,9 C 94 % 1019,7 hPa 0,0 l/m 0 min 0 min 0,0 UV-I 0 W/m 0,0 km/h (0 Bft)
30.05.2014 03:42 9,9 C 8,9 C 94 % 1019,7 hPa 0,0 l/m 0 min 0 min 0,0 UV-I 0 W/m 2,6 km/h (1 Bft)
30.05.2014 03:44 9,9 C 8,9 C 94 % 1019,7 hPa 0,0 l/m 0 min 0 min 0,0 UV-I 0 W/m 0,0 km/h (0 Bft)
30.05.2014 03:46 9,9 C 8,9 C 94 % 1019,7 hPa 0,0 l/m 0 min 0 min 0,0 UV-I 0 W/m 2,6 km/h (1 Bft)
30.05.2014 03:48 9,9 C 8,9 C 94 % 1019,7 hPa 0,0 l/m 0 min 0 min 0,0 UV-I 0 W/m 0,0 km/h (0 Bft)
30.05.2014 03:50 9,9 C 8,9 C 94 % 1019,7 hPa 0,0 l/m 0 min 0 min 0,0 UV-I 0 W/m 0,0 km/h (0 Bft)
30.05.2014 03:52 9,9 C 8,9 C 94 % 1019,7 hPa 0,0 l/m 0 min 0 min 0,0 UV-I 0 W/m 0,0 km/h (0 Bft)
30.05.2014 03:54 9,9 C 8,9 C 94 % 1019,8 hPa 0,0 l/m 0 min 0 min 0,0 UV-I 0 W/m 0,0 km/h (0 Bft)
30.05.2014 03:56 9,9 C 8,9 C 94 % 1019,8 hPa 0,0 l/m 0 min 0 min 0,0 UV-I 0 W/m 0,0 km/h (0 Bft)
30.05.2014 03:58 9,9 C 8,9 C 94 % 1019,7 hPa 0,0 l/m 0 min 0 min 0,0 UV-I 0 W/m 0,0 km/h (0 Bft)
30.05.2014 04:00 9,9 C 8,9 C 94 % 1019,8 hPa 0,0 l/m 0 min 0 min 0,0 UV-I 0 W/m 0,0 km/h (0 Bft)
30.05.2014 04:02 9,9 C 8,9 C 94 % 1019,8 hPa 0,0 l/m 0 min 0 min 0,0 UV-I 0 W/m 0,0 km/h (0 Bft)
30.05.2014 04:06 9,9 C 8,9 C 94 % 1019,8 hPa 0,0 l/m 0 min 0 min 0,0 UV-I 0 W/m 0,0 km/h (0 Bft)
30.05.2014 04:08 9,9 C 8,9 C 94 % 1019,8 hPa 0,0 l/m 0 min 0 min 0,0 UV-I 0 W/m 0,0 km/h (0 Bft)
30.05.2014 04:10 9,9 C 8,9 C 94 % 1019,9 hPa 0,0 l/m 0 min 0 min 0,0 UV-I 0 W/m 2,6 km/h (1 Bft)
30.05.2014 04:12 9,9 C 8,9 C 94 % 1019,9 hPa 0,0 l/m 0 min 0 min 0,0 UV-I 0 W/m 2,6 km/h (1 Bft)
30.05.2014 04:14 9,9 C 8,9 C 94 % 1019,8 hPa 0,0 l/m 0 min 0 min 0,0 UV-I 0 W/m 7,7 km/h (2 Bft)
30.05.2014 04:16 9,9 C 8,9 C 94 % 1019,8 hPa 0,0 l/m 0 min 0 min 0,0 UV-I 0 W/m 5,1 km/h (1 Bft)
30.05.2014 04:18 9,9 C 8,9 C 94 % 1019,9 hPa 0,0 l/m 0 min 0 min 0,0 UV-I 0 W/m 7,7 km/h (2 Bft)
30.05.2014 04:20 9,9 C 8,9 C 94 % 1019,9 hPa 0,0 l/m 0 min 0 min 0,0 UV-I 0 W/m 0,0 km/h (0 Bft)
30.05.2014 04:22 9,9 C 8,9 C 94 % 1019,9 hPa 0,0 l/m 0 min 0 min 0,0 UV-I 0 W/m 0,0 km/h (0 Bft)
30.05.2014 04:24 9,9 C 8,9 C 94 % 1019,8 hPa 0,0 l/m 0 min 0 min 0,0 UV-I 0 W/m 5,1 km/h (1 Bft)
30.05.2014 04:26 9,8 C 8,9 C 94 % 1019,8 hPa 0,0 l/m 0 min 0 min 0,0 UV-I 0 W/m 0,0 km/h (0 Bft)
30.05.2014 04:28 9,8 C 8,9 C 94 % 1019,8 hPa 0,0 l/m 0 min 0 min 0,0 UV-I 0 W/m 0,0 km/h (0 Bft)
30.05.2014 04:30 9,8 C 8,9 C 94 % 1019,8 hPa 0,0 l/m 0 min 0 min 0,0 UV-I 0 W/m 0,0 km/h (0 Bft)
30.05.2014 04:32 9,8 C 8,9 C 94 % 1019,8 hPa 0,0 l/m 0 min 0 min 0,0 UV-I 0 W/m 2,6 km/h (1 Bft)
30.05.2014 04:34 9,8 C 8,9 C 94 % 1019,8 hPa 0,0 l/m 0 min 0 min 0,0 UV-I 0 W/m 0,0 km/h (0 Bft)
30.05.2014 04:36 9,8 C 8,9 C 94 % 1019,8 hPa 0,0 l/m 0 min 0 min 0,0 UV-I 0 W/m 0,0 km/h (0 Bft)
30.05.2014 04:38 9,8 C 8,9 C 94 % 1019,8 hPa 0,0 l/m 0 min 0 min 0,0 UV-I 0 W/m 0,0 km/h (0 Bft)
30.05.2014 04:40 9,8 C 8,9 C 94 % 1019,8 hPa 0,0 l/m 0 min 0 min 0,0 UV-I 0 W/m 0,0 km/h (0 Bft)
30.05.2014 04:42 9,8 C 8,9 C 94 % 1019,8 hPa 0,0 l/m 0 min 0 min 0,0 UV-I 0 W/m 0,0 km/h (0 Bft)
30.05.2014 04:44 9,8 C 8,9 C 94 % 1019,9 hPa 0,0 l/m 0 min 0 min 0,0 UV-I 0 W/m 0,0 km/h (0 Bft)
30.05.2014 04:46 9,8 C 8,9 C 94 % 1019,9 hPa 0,0 l/m 0 min 0 min 0,0 UV-I 0 W/m 0,0 km/h (0 Bft)
30.05.2014 04:48 9,8 C 8,9 C 94 % 1019,8 hPa 0,0 l/m 0 min 0 min 0,0 UV-I 0 W/m 0,0 km/h (0 Bft)
30.05.2014 04:50 9,8 C 8,9 C 94 % 1019,8 hPa 0,0 l/m 0 min 0 min 0,0 UV-I 0 W/m 5,1 km/h (1 Bft)
30.05.2014 04:52 9,8 C 8,9 C 94 % 1019,8 hPa 0,0 l/m 0 min 0 min 0,0 UV-I 0 W/m 0,0 km/h (0 Bft)
30.05.2014 04:54 9,8 C 8,9 C 94 % 1019,9 hPa 0,0 l/m 0 min 0 min 0,0 UV-I 0 W/m 5,1 km/h (1 Bft)
30.05.2014 04:56 9,8 C 8,9 C 94 % 1019,9 hPa 0,0 l/m 0 min 0 min 0,0 UV-I 0 W/m 5,1 km/h (1 Bft)
30.05.2014 04:58 9,8 C 8,9 C 94 % 1019,9 hPa 0,0 l/m 0 min 0 min 0,0 UV-I 0 W/m 5,1 km/h (1 Bft)
30.05.2014 05:00 9,8 C 8,9 C 94 % 1019,9 hPa 0,0 l/m 0 min 0 min 0,0 UV-I 0 W/m 5,1 km/h (1 Bft)
30.05.2014 05:02 9,8 C 8,9 C 94 % 1019,9 hPa 0,0 l/m 0 min 0 min 0,0 UV-I 0 W/m 7,7 km/h (2 Bft)
30.05.2014 05:06 9,8 C 8,9 C 94 % 1020,0 hPa 0,0 l/m 0 min 0 min 0,0 UV-I 0 W/m 0,0 km/h (0 Bft)
30.05.2014 05:08 9,7 C 8,9 C 94 % 1020,0 hPa 0,0 l/m 0 min 0 min 0,0 UV-I 0 W/m 0,0 km/h (0 Bft)
30.05.2014 05:10 9,7 C 8,9 C 94 % 1019,9 hPa 0,0 l/m 0 min 0 min 0,0 UV-I 0 W/m 0,0 km/h (0 Bft)
30.05.2014 05:12 9,7 C 8,9 C 94 % 1020,0 hPa 0,0 l/m 0 min 0 min 0,0 UV-I 0 W/m 0,0 km/h (0 Bft)
30.05.2014 05:14 9,7 C 8,9 C 94 % 1020,0 hPa 0,0 l/m 0 min 0 min 0,0 UV-I 0 W/m 0,0 km/h (0 Bft)
30.05.2014 05:16 9,7 C 8,9 C 94 % 1020,0 hPa 0,0 l/m 0 min 0 min 0,0 UV-I 0 W/m 7,7 km/h (2 Bft)
30.05.2014 05:18 9,7 C 8,9 C 94 % 1020,1 hPa 0,0 l/m 0 min 0 min 0,0 UV-I 0 W/m 7,7 km/h (2 Bft)
30.05.2014 05:20 9,8 C 8,9 C 94 % 1020,0 hPa 0,0 l/m 0 min 0 min 0,0 UV-I 0 W/m 0,0 km/h (0 Bft)
30.05.2014 05:22 9,8 C 8,9 C 94 % 1020,1 hPa 0,0 l/m 0 min 0 min 0,0 UV-I 0 W/m 5,1 km/h (1 Bft)
30.05.2014 05:24 9,8 C 8,9 C 94 % 1020,2 hPa 0,0 l/m 0 min 0 min 0,0 UV-I 0 W/m 0,0 km/h (0 Bft)
30.05.2014 05:26 9,7 C 8,9 C 94 % 1020,1 hPa 0,0 l/m 0 min 0 min 0,0 UV-I 0 W/m 0,0 km/h (0 Bft)
30.05.2014 05:28 9,8 C 8,9 C 94 % 1020,2 hPa 0,0 l/m 0 min 0 min 0,0 UV-I 5 W/m 0,0 km/h (0 Bft)
30.05.2014 05:30 9,8 C 8,9 C 94 % 1020,1 hPa 0,0 l/m 0 min 0 min 0,0 UV-I 5 W/m 0,0 km/h (0 Bft)
30.05.2014 05:32 9,8 C 8,9 C 94 % 1020,2 hPa 0,0 l/m 0 min 0 min 0,0 UV-I 7 W/m 0,0 km/h (0 Bft)
30.05.2014 05:34 9,8 C 8,9 C 94 % 1020,2 hPa 0,0 l/m 0 min 0 min 0,0 UV-I 7 W/m 0,0 km/h (0 Bft)
30.05.2014 05:36 9,8 C 8,9 C 94 % 1020,1 hPa 0,0 l/m 0 min 0 min 0,0 UV-I 7 W/m 0,0 km/h (0 Bft)
30.05.2014 05:38 9,8 C 8,9 C 94 % 1020,1 hPa 0,0 l/m 0 min 0 min 0,0 UV-I 7 W/m 0,0 km/h (0 Bft)
30.05.2014 05:40 9,8 C 8,9 C 94 % 1020,2 hPa 0,0 l/m 0 min 0 min 0,0 UV-I 7 W/m 0,0 km/h (0 Bft)
30.05.2014 05:42 9,8 C 8,9 C 94 % 1020,2 hPa 0,0 l/m 0 min 0 min 0,0 UV-I 9 W/m 0,0 km/h (0 Bft)
30.05.2014 05:44 9,8 C 8,9 C 94 % 1020,2 hPa 0,0 l/m 0 min 0 min 0,0 UV-I 9 W/m 7,7 km/h (2 Bft)
30.05.2014 05:46 9,8 C 8,9 C 94 % 1020,3 hPa 0,0 l/m 0 min 0 min 0,0 UV-I 11 W/m 7,7 km/h (2 Bft)
30.05.2014 05:48 9,8 C 8,9 C 94 % 1020,2 hPa 0,0 l/m 0 min 0 min 0,0 UV-I 11 W/m 0,0 km/h (0 Bft)
30.05.2014 05:50 9,8 C 8,9 C 94 % 1020,3 hPa 0,0 l/m 0 min 0 min 0,0 UV-I 11 W/m 0,0 km/h (0 Bft)
30.05.2014 05:52 9,8 C 8,9 C 94 % 1020,3 hPa 0,0 l/m 0 min 0 min 0,0 UV-I 12 W/m 0,0 km/h (0 Bft)
30.05.2014 05:54 9,8 C 8,9 C 94 % 1020,3 hPa 0,0 l/m 0 min 0 min 0,0 UV-I 12 W/m 0,0 km/h (0 Bft)
30.05.2014 05:56 9,8 C 8,9 C 94 % 1020,4 hPa 0,0 l/m 0 min 0 min 0,0 UV-I 14 W/m 0,0 km/h (0 Bft)
30.05.2014 05:58 9,8 C 8,9 C 94 % 1020,3 hPa 0,0 l/m 0 min 0 min 0,0 UV-I 16 W/m 0,0 km/h (0 Bft)
30.05.2014 06:00 9,7 C 8,9 C 94 % 1020,3 hPa 0,0 l/m 0 min 0 min 0,0 UV-I 18 W/m 0,0 km/h (0 Bft)
30.05.2014 06:02 9,7 C 8,9 C 94 % 1020,3 hPa 0,0 l/m 0 min 0 min 0,0 UV-I 19 W/m 0,0 km/h (0 Bft)
30.05.2014 06:06 9,7 C 8,9 C 94 % 1020,3 hPa 0,0 l/m 0 min 0 min 0,0 UV-I 21 W/m 0,0 km/h (0 Bft)
30.05.2014 06:08 9,7 C 8,9 C 94 % 1020,3 hPa 0,0 l/m 0 min 0 min 0,0 UV-I 23 W/m 0,0 km/h (0 Bft)
30.05.2014 06:10 9,7 C 8,9 C 94 % 1020,4 hPa 0,0 l/m 0 min 0 min 0,0 UV-I 26 W/m 2,6 km/h (1 Bft)
30.05.2014 06:12 9,7 C 8,9 C 94 % 1020,4 hPa 0,0 l/m 0 min 0 min 0,0 UV-I 26 W/m 0,0 km/h (0 Bft)
30.05.2014 06:14 9,7 C 9,4 C 94 % 1020,4 hPa 0,0 l/m 0 min 0 min 0,0 UV-I 28 W/m 0,0 km/h (0 Bft)
30.05.2014 06:16 9,7 C 9,4 C 94 % 1020,5 hPa 0,0 l/m 0 min 0 min 0,0 UV-I 30 W/m 7,7 km/h (2 Bft)
30.05.2014 06:18 9,7 C 9,4 C 94 % 1020,5 hPa 0,0 l/m 0 min 0 min 0,0 UV-I 32 W/m 0,0 km/h (0 Bft)
30.05.2014 06:20 9,7 C 9,4 C 94 % 1020,5 hPa 0,0 l/m 0 min 0 min 0,0 UV-I 32 W/m 0,0 km/h (0 Bft)
30.05.2014 06:22 9,7 C 9,4 C 94 % 1020,6 hPa 0,0 l/m 0 min 0 min 0,0 UV-I 33 W/m 0,0 km/h (0 Bft)
30.05.2014 06:24 9,7 C 9,4 C 94 % 1020,5 hPa 0,0 l/m 0 min 0 min 0,0 UV-I 35 W/m 0,0 km/h (0 Bft)
30.05.2014 06:26 9,7 C 9,4 C 94 % 1020,6 hPa 0,0 l/m 0 min 0 min 0,0 UV-I 37 W/m 0,0 km/h (0 Bft)
30.05.2014 06:28 9,7 C 9,4 C 94 % 1020,5 hPa 0,0 l/m 0 min 0 min 0,0 UV-I 39 W/m 0,0 km/h (0 Bft)
30.05.2014 06:30 9,8 C 9,4 C 94 % 1020,6 hPa 0,0 l/m 0 min 0 min 0,0 UV-I 39 W/m 2,6 km/h (1 Bft)
30.05.2014 06:32 9,7 C 9,4 C 94 % 1020,6 hPa 0,0 l/m 0 min 0 min 0,0 UV-I 42 W/m 0,0 km/h (0 Bft)
30.05.2014 06:34 9,8 C 9,4 C 94 % 1020,6 hPa 0,0 l/m 0 min 0 min 0,0 UV-I 42 W/m 0,0 km/h (0 Bft)
30.05.2014 06:36 9,8 C 9,4 C 93 % 1020,6 hPa 0,0 l/m 0 min 0 min 0,0 UV-I 44 W/m 2,6 km/h (1 Bft)
30.05.2014 06:38 9,8 C 9,4 C 93 % 1020,6 hPa 0,0 l/m 0 min 0 min 0,0 UV-I 47 W/m 0,0 km/h (0 Bft)
30.05.2014 06:40 9,8 C 9,4 C 93 % 1020,6 hPa 0,0 l/m 0 min 0 min 0,0 UV-I 47 W/m 0,0 km/h (0 Bft)
30.05.2014 06:42 9,8 C 9,4 C 93 % 1020,6 hPa 0,0 l/m 0 min 0 min 0,0 UV-I 51 W/m 5,1 km/h (1 Bft)
30.05.2014 06:44 9,8 C 9,4 C 93 % 1020,6 hPa 0,0 l/m 0 min 0 min 0,0 UV-I 53 W/m 0,0 km/h (0 Bft)
30.05.2014 06:46 9,8 C 9,4 C 93 % 1020,7 hPa 0,0 l/m 0 min 0 min 0,0 UV-I 56 W/m 0,0 km/h (0 Bft)
30.05.2014 06:48 9,9 C 9,4 C 93 % 1020,7 hPa 0,0 l/m 0 min 0 min 0,0 UV-I 60 W/m 12,9 km/h (3 Bft)
30.05.2014 06:50 9,9 C 9,4 C 93 % 1020,6 hPa 0,0 l/m 0 min 0 min 0,0 UV-I 62 W/m 2,6 km/h (1 Bft)
30.05.2014 06:52 9,9 C 9,4 C 93 % 1020,7 hPa 0,0 l/m 0 min 0 min 0,0 UV-I 65 W/m 0,0 km/h (0 Bft)
30.05.2014 06:54 9,9 C 9,4 C 93 % 1020,6 hPa 0,0 l/m 0 min 0 min 0,0 UV-I 69 W/m 2,6 km/h (1 Bft)
30.05.2014 06:56 9,9 C 9,4 C 93 % 1020,7 hPa 0,0 l/m 0 min 0 min 0,0 UV-I 70 W/m 0,0 km/h (0 Bft)
30.05.2014 06:58 10,0 C 9,4 C 92 % 1020,7 hPa 0,0 l/m 0 min 0 min 0,0 UV-I 72 W/m 0,0 km/h (0 Bft)
30.05.2014 07:00 10,0 C 9,4 C 92 % 1020,7 hPa 0,0 l/m 0 min 0 min 0,0 UV-I 72 W/m 10,3 km/h (2 Bft)
30.05.2014 07:02 10,0 C 9,4 C 92 % 1020,7 hPa 0,0 l/m 0 min 0 min 0,0 UV-I 70 W/m 2,6 km/h (1 Bft)
30.05.2014 07:06 10,0 C 9,4 C 91 % 1020,8 hPa 0,0 l/m 0 min 0 min 0,0 UV-I 81 W/m 5,1 km/h (1 Bft)
30.05.2014 07:08 10,1 C 9,4 C 91 % 1020,8 hPa 0,0 l/m 0 min 0 min 0,0 UV-I 84 W/m 5,1 km/h (1 Bft)
30.05.2014 07:10 10,1 C 10,0 C 91 % 1020,7 hPa 0,0 l/m 0 min 0 min 0,0 UV-I 86 W/m 7,7 km/h (2 Bft)
30.05.2014 07:12 10,1 C 10,0 C 91 % 1020,8 hPa 0,0 l/m 0 min 0 min 0,0 UV-I 91 W/m 7,7 km/h (2 Bft)
30.05.2014 07:14 10,1 C 10,0 C 90 % 1020,8 hPa 0,0 l/m 0 min 0 min 0,0 UV-I 91 W/m 5,1 km/h (1 Bft)
30.05.2014 07:16 10,1 C 10,0 C 90 % 1020,8 hPa 0,0 l/m 0 min 0 min 0,0 UV-I 93 W/m 7,7 km/h (2 Bft)
30.05.2014 07:18 10,2 C 10,0 C 90 % 1020,8 hPa 0,0 l/m 0 min 0 min 0,0 UV-I 97 W/m 5,1 km/h (1 Bft)
30.05.2014 07:20 10,2 C 10,0 C 89 % 1020,8 hPa 0,0 l/m 0 min 0 min 0,0 UV-I 102 W/m 0,0 km/h (0 Bft)
30.05.2014 07:22 10,2 C 10,0 C 89 % 1020,8 hPa 0,0 l/m 0 min 0 min 0,0 UV-I 107 W/m 10,3 km/h (2 Bft)
30.05.2014 07:24 10,2 C 10,0 C 89 % 1020,8 hPa 0,0 l/m 0 min 0 min 0,0 UV-I 114 W/m 5,1 km/h (1 Bft)
30.05.2014 07:26 10,3 C 10,0 C 88 % 1020,9 hPa 0,0 l/m 0 min 0 min 0,0 UV-I 127 W/m 0,0 km/h (0 Bft)
30.05.2014 07:28 10,3 C 10,0 C 88 % 1020,8 hPa 0,0 l/m 0 min 0 min 0,0 UV-I 128 W/m 2,6 km/h (1 Bft)
30.05.2014 07:30 10,4 C 10,0 C 89 % 1020,8 hPa 0,0 l/m 0 min 0 min 0,0 UV-I 134 W/m 0,0 km/h (0 Bft)
30.05.2014 07:32 10,5 C 10,0 C 89 % 1020,8 hPa 0,0 l/m 0 min 0 min 0,0 UV-I 139 W/m 10,3 km/h (2 Bft)
30.05.2014 07:34 10,6 C 10,0 C 89 % 1020,8 hPa 0,0 l/m 0 min 0 min 0,0 UV-I 142 W/m 0,0 km/h (0 Bft)
30.05.2014 07:36 10,6 C 10,0 C 89 % 1020,9 hPa 0,0 l/m 0 min 0 min 0,0 UV-I 142 W/m 7,7 km/h (2 Bft)
30.05.2014 07:38 10,7 C 10,0 C 90 % 1020,9 hPa 0,0 l/m 0 min 0 min 0,0 UV-I 141 W/m 10,3 km/h (2 Bft)
30.05.2014 07:40 10,7 C 10,0 C 90 % 1020,9 hPa 0,0 l/m 0 min 0 min 0,0 UV-I 139 W/m 0,0 km/h (0 Bft)
30.05.2014 07:42 10,7 C 10,0 C 90 % 1021,0 hPa 0,0 l/m 0 min 0 min 0,0 UV-I 134 W/m 7,7 km/h (2 Bft)
30.05.2014 07:44 10,8 C 10,0 C 90 % 1020,9 hPa 0,0 l/m 0 min 0 min 0,0 UV-I 127 W/m 0,0 km/h (0 Bft)
30.05.2014 07:46 10,8 C 10,0 C 90 % 1021,0 hPa 0,0 l/m 0 min 0 min 0,0 UV-I 127 W/m 0,0 km/h (0 Bft)
30.05.2014 07:48 10,8 C 10,0 C 90 % 1021,0 hPa 0,0 l/m 0 min 0 min 0,0 UV-I 118 W/m 0,0 km/h (0 Bft)
30.05.2014 07:50 10,8 C 10,0 C 90 % 1021,0 hPa 0,0 l/m 0 min 0 min 0,0 UV-I 105 W/m 0,0 km/h (0 Bft)
30.05.2014 07:52 10,8 C 10,0 C 90 % 1021,0 hPa 0,0 l/m 0 min 0 min 0,0 UV-I 137 W/m 7,7 km/h (2 Bft)
30.05.2014 07:54 10,8 C 10,0 C 90 % 1021,0 hPa 0,0 l/m 2 min 0 min 0,0 UV-I 200 W/m 0,0 km/h (0 Bft)
30.05.2014 07:56 10,8 C 10,0 C 90 % 1021,0 hPa 0,0 l/m 2 min 0 min 0,0 UV-I 313 W/m 5,1 km/h (1 Bft)
30.05.2014 07:58 10,8 C 10,0 C 90 % 1021,0 hPa 0,0 l/m 2 min 0 min 0,0 UV-I 276 W/m 5,1 km/h (1 Bft)
30.05.2014 08:00 10,8 C 10,0 C 90 % 1021,0 hPa 0,0 l/m 0 min 0 min 0,0 UV-I 102 W/m 0,0 km/h (0 Bft)
30.05.2014 08:02 10,8 C 9,4 C 90 % 1021,0 hPa 0,0 l/m 0 min 0 min 0,0 UV-I 105 W/m 0,0 km/h (0 Bft)
30.05.2014 08:06 10,8 C 10,0 C 90 % 1021,0 hPa 0,0 l/m 2 min 0 min 0,0 UV-I 322 W/m 2,6 km/h (1 Bft)
30.05.2014 08:08 10,8 C 10,0 C 90 % 1021,1 hPa 0,0 l/m 2 min 0 min 0,0 UV-I 207 W/m 0,0 km/h (0 Bft)
30.05.2014 08:10 10,8 C 10,0 C 89 % 1021,1 hPa 0,0 l/m 0 min 0 min 0,0 UV-I 167 W/m 10,3 km/h (2 Bft)
30.05.2014 08:12 10,8 C 10,0 C 89 % 1021,1 hPa 0,0 l/m 0 min 0 min 0,0 UV-I 128 W/m 7,7 km/h (2 Bft)
30.05.2014 08:14 10,8 C 10,0 C 89 % 1021,1 hPa 0,0 l/m 0 min 0 min 0,0 UV-I 137 W/m 0,0 km/h (0 Bft)
30.05.2014 08:16 10,7 C 10,0 C 89 % 1021,1 hPa 0,0 l/m 0 min 0 min 0,0 UV-I 163 W/m 2,6 km/h (1 Bft)
30.05.2014 08:18 10,7 C 10,0 C 88 % 1021,1 hPa 0,0 l/m 2 min 0 min 0,0 UV-I 220 W/m 7,7 km/h (2 Bft)
30.05.2014 08:20 10,7 C 10,0 C 88 % 1021,1 hPa 0,0 l/m 0 min 0 min 0,0 UV-I 197 W/m 10,3 km/h (2 Bft)
30.05.2014 08:22 10,7 C 10,0 C 87 % 1021,2 hPa 0,0 l/m 2 min 0 min 0,0 UV-I 264 W/m 12,9 km/h (3 Bft)
30.05.2014 08:24 10,7 C 10,0 C 86 % 1021,2 hPa 0,0 l/m 2 min 0 min 0,0 UV-I 244 W/m 7,7 km/h (2 Bft)
30.05.2014 08:26 10,7 C 10,0 C 86 % 1021,1 hPa 0,0 l/m 2 min 0 min 0,0 UV-I 292 W/m 10,3 km/h (2 Bft)
30.05.2014 08:28 10,7 C 10,0 C 85 % 1021,1 hPa 0,0 l/m 2 min 0 min 0,0 UV-I 308 W/m 18,0 km/h (3 Bft)
30.05.2014 08:30 10,8 C 10,0 C 83 % 1021,1 hPa 0,0 l/m 2 min 0 min 0,0 UV-I 364 W/m 18,0 km/h (3 Bft)
30.05.2014 08:32 11,1 C 10,6 C 81 % 1021,1 hPa 0,0 l/m 2 min 0 min 0,0 UV-I 383 W/m 10,3 km/h (2 Bft)
30.05.2014 08:34 11,3 C 10,6 C 80 % 1021,2 hPa 0,0 l/m 2 min 0 min 0,0 UV-I 355 W/m 2,6 km/h (1 Bft)
30.05.2014 08:36 11,5 C 10,6 C 80 % 1021,2 hPa 0,0 l/m 2 min 0 min 0,0 UV-I 332 W/m 10,3 km/h (2 Bft)
30.05.2014 08:38 11,7 C 10,6 C 78 % 1021,2 hPa 0,0 l/m 2 min 0 min 0,0 UV-I 355 W/m 0,0 km/h (0 Bft)
30.05.2014 08:40 11,8 C 10,6 C 78 % 1021,2 hPa 0,0 l/m 2 min 0 min 0,0 UV-I 311 W/m 12,9 km/h (3 Bft)
30.05.2014 08:42 11,9 C 10,6 C 77 % 1021,2 hPa 0,0 l/m 2 min 0 min 0,0 UV-I 322 W/m 12,9 km/h (3 Bft)
30.05.2014 08:44 12,1 C 10,6 C 76 % 1021,2 hPa 0,0 l/m 2 min 0 min 0,0 UV-I 390 W/m 10,3 km/h (2 Bft)
30.05.2014 08:46 12,2 C 10,6 C 75 % 1021,2 hPa 0,0 l/m 2 min 0 min 0,0 UV-I 381 W/m 12,9 km/h (3 Bft)
30.05.2014 08:48 12,2 C 10,6 C 75 % 1021,3 hPa 0,0 l/m 2 min 0 min 0,5 UV-I 406 W/m 12,9 km/h (3 Bft)
30.05.2014 08:50 12,4 C 10,6 C 74 % 1021,3 hPa 0,0 l/m 2 min 0 min 0,5 UV-I 417 W/m 7,7 km/h (2 Bft)
30.05.2014 08:52 12,5 C 11,1 C 73 % 1021,3 hPa 0,0 l/m 2 min 0 min 0,0 UV-I 383 W/m 12,9 km/h (3 Bft)
30.05.2014 08:54 12,5 C 11,1 C 73 % 1021,3 hPa 0,0 l/m 2 min 0 min 0,5 UV-I 380 W/m 12,9 km/h (3 Bft)
30.05.2014 08:56 12,5 C 11,1 C 73 % 1021,3 hPa 0,0 l/m 2 min 0 min 0,0 UV-I 378 W/m 12,9 km/h (3 Bft)
30.05.2014 08:58 12,6 C 11,1 C 74 % 1021,3 hPa 0,0 l/m 2 min 0 min 0,6 UV-I 381 W/m 18,0 km/h (3 Bft)
30.05.2014 09:00 12,7 C 11,1 C 74 % 1021,3 hPa 0,0 l/m 2 min 0 min 0,6 UV-I 381 W/m 18,0 km/h (3 Bft)
30.05.2014 09:02 12,7 C 11,1 C 72 % 1021,4 hPa 0,0 l/m 2 min 0 min 0,7 UV-I 469 W/m 15,4 km/h (3 Bft)
30.05.2014 09:06 12,8 C 11,1 C 72 % 1021,4 hPa 0,0 l/m 2 min 0 min 0,8 UV-I 462 W/m 12,9 km/h (3 Bft)
30.05.2014 09:08 12,8 C 11,1 C 72 % 1021,4 hPa 0,0 l/m 2 min 0 min 0,8 UV-I 478 W/m 10,3 km/h (2 Bft)
30.05.2014 09:10 12,9 C 11,1 C 73 % 1021,4 hPa 0,0 l/m 2 min 0 min 0,8 UV-I 482 W/m 20,6 km/h (4 Bft)
30.05.2014 09:12 13,0 C 11,1 C 71 % 1021,4 hPa 0,0 l/m 2 min 0 min 0,9 UV-I 482 W/m 18,0 km/h (3 Bft)
30.05.2014 09:14 13,1 C 11,1 C 71 % 1021,4 hPa 0,0 l/m 2 min 0 min 0,9 UV-I 476 W/m 20,6 km/h (4 Bft)
30.05.2014 09:16 13,1 C 11,7 C 71 % 1021,4 hPa 0,0 l/m 2 min 0 min 0,9 UV-I 494 W/m 15,4 km/h (3 Bft)
30.05.2014 09:18 13,2 C 11,7 C 71 % 1021,4 hPa 0,0 l/m 2 min 0 min 0,9 UV-I 494 W/m 10,3 km/h (2 Bft)
30.05.2014 09:20 13,4 C 11,7 C 71 % 1021,4 hPa 0,0 l/m 2 min 0 min 1,0 UV-I 508 W/m 15,4 km/h (3 Bft)
30.05.2014 09:22 13,4 C 11,7 C 71 % 1021,4 hPa 0,0 l/m 2 min 0 min 1,0 UV-I 520 W/m 18,0 km/h (3 Bft)
30.05.2014 09:24 13,7 C 11,7 C 71 % 1021,4 hPa 0,0 l/m 2 min 0 min 1,0 UV-I 432 W/m 7,7 km/h (2 Bft)
30.05.2014 09:26 13,8 C 12,2 C 71 % 1021,4 hPa 0,0 l/m 2 min 0 min 1,1 UV-I 494 W/m 5,1 km/h (1 Bft)
30.05.2014 09:28 13,9 C 12,2 C 70 % 1021,4 hPa 0,0 l/m 2 min 0 min 1,2 UV-I 543 W/m 15,4 km/h (3 Bft)
30.05.2014 09:30 13,9 C 12,2 C 69 % 1021,4 hPa 0,0 l/m 2 min 0 min 1,2 UV-I 550 W/m 15,4 km/h (3 Bft)
30.05.2014 09:32 13,9 C 12,2 C 69 % 1021,4 hPa 0,0 l/m 2 min 0 min 1,2 UV-I 545 W/m 12,9 km/h (3 Bft)
30.05.2014 09:34 13,9 C 12,2 C 69 % 1021,4 hPa 0,0 l/m 2 min 0 min 1,2 UV-I 501 W/m 12,9 km/h (3 Bft)
30.05.2014 09:36 13,9 C 12,2 C 69 % 1021,4 hPa 0,0 l/m 2 min 0 min 1,2 UV-I 501 W/m 10,3 km/h (2 Bft)
30.05.2014 09:38 14,0 C 12,2 C 69 % 1021,4 hPa 0,0 l/m 2 min 0 min 1,2 UV-I 499 W/m 7,7 km/h (2 Bft)
30.05.2014 09:40 14,1 C 12,2 C 70 % 1021,4 hPa 0,0 l/m 2 min 0 min 1,2 UV-I 473 W/m 15,4 km/h (3 Bft)
30.05.2014 09:42 14,2 C 12,2 C 70 % 1021,4 hPa 0,0 l/m 2 min 0 min 1,3 UV-I 548 W/m 12,9 km/h (3 Bft)
30.05.2014 09:44 14,2 C 12,8 C 69 % 1021,5 hPa 0,0 l/m 2 min 0 min 1,4 UV-I 536 W/m 10,3 km/h (2 Bft)
30.05.2014 09:46 14,2 C 12,8 C 70 % 1021,5 hPa 0,0 l/m 2 min 0 min 1,3 UV-I 475 W/m 15,4 km/h (3 Bft)
30.05.2014 09:48 14,2 C 12,8 C 70 % 1021,5 hPa 0,0 l/m 2 min 0 min 1,5 UV-I 584 W/m 12,9 km/h (3 Bft)
30.05.2014 09:50 14,2 C 13,3 C 67 % 1021,5 hPa 0,0 l/m 2 min 0 min 1,6 UV-I 594 W/m 12,9 km/h (3 Bft)
30.05.2014 09:52 14,2 C 13,9 C 66 % 1021,5 hPa 0,0 l/m 2 min 0 min 1,6 UV-I 587 W/m 20,6 km/h (4 Bft)
30.05.2014 09:54 14,2 C 14,4 C 67 % 1021,5 hPa 0,0 l/m 2 min 0 min 1,5 UV-I 559 W/m 7,7 km/h (2 Bft)
30.05.2014 09:56 14,2 C 15,6 C 67 % 1021,6 hPa 0,0 l/m 2 min 0 min 1,6 UV-I 554 W/m 23,2 km/h (4 Bft)
30.05.2014 09:58 14,2 C 17,2 C 66 % 1021,6 hPa 0,0 l/m 2 min 0 min 1,6 UV-I 550 W/m 12,9 km/h (3 Bft)
30.05.2014 10:00 14,3 C 18,3 C 68 % 1021,6 hPa 0,0 l/m 2 min 0 min 1,7 UV-I 557 W/m 0,0 km/h (0 Bft)
30.05.2014 10:02 14,5 C 19,4 C 67 % 1021,7 hPa 0,0 l/m 2 min 0 min 1,8 UV-I 564 W/m 7,7 km/h (2 Bft)
30.05.2014 10:06 14,7 C 20,0 C 67 % 1021,6 hPa 0,0 l/m 2 min 0 min 1,9 UV-I 635 W/m 12,9 km/h (3 Bft)
30.05.2014 10:08 14,8 C 19,4 C 69 % 1021,6 hPa 0,0 l/m 2 min 0 min 1,9 UV-I 622 W/m 12,9 km/h (3 Bft)
30.05.2014 10:10 14,8 C 17,8 C 67 % 1021,6 hPa 0,0 l/m 2 min 0 min 2,0 UV-I 640 W/m 12,9 km/h (3 Bft)
30.05.2014 10:12 14,7 C 17,2 C 67 % 1021,5 hPa 0,0 l/m 2 min 0 min 1,9 UV-I 612 W/m 0,0 km/h (0 Bft)
30.05.2014 10:14 14,7 C 16,7 C 69 % 1021,5 hPa 0,0 l/m 2 min 0 min 0,8 UV-I 584 W/m 15,4 km/h (3 Bft)
30.05.2014 10:16 14,7 C 15,6 C 68 % 1021,5 hPa 0,0 l/m 0 min 0 min 2,1 UV-I 207 W/m 15,4 km/h (3 Bft)
30.05.2014 10:18 14,6 C 16,1 C 69 % 1021,5 hPa 0,0 l/m 2 min 0 min 2,2 UV-I 656 W/m 15,4 km/h (3 Bft)
30.05.2014 10:20 14,6 C 17,2 C 69 % 1021,5 hPa 0,0 l/m 2 min 0 min 2,3 UV-I 705 W/m 18,0 km/h (3 Bft)
30.05.2014 10:22 14,7 C 16,7 C 67 % 1021,6 hPa 0,0 l/m 2 min 0 min 2,4 UV-I 744 W/m 12,9 km/h (3 Bft)
30.05.2014 10:24 14,8 C 17,2 C 67 % 1021,6 hPa 0,0 l/m 2 min 0 min 2,4 UV-I 793 W/m 10,3 km/h (2 Bft)
30.05.2014 10:26 14,8 C 16,7 C 67 % 1021,6 hPa 0,0 l/m 0 min 0 min 1,1 UV-I 200 W/m 7,7 km/h (2 Bft)
30.05.2014 10:28 14,6 C 15,6 C 67 % 1021,5 hPa 0,0 l/m 0 min 0 min 2,4 UV-I 246 W/m 0,0 km/h (0 Bft)
30.05.2014 10:30 14,4 C 17,2 C 67 % 1021,6 hPa 0,0 l/m 2 min 0 min 2,6 UV-I 703 W/m 12,9 km/h (3 Bft)
30.05.2014 10:32 14,5 C 17,8 C 67 % 1021,6 hPa 0,0 l/m 2 min 0 min 2,5 UV-I 744 W/m 15,4 km/h (3 Bft)
30.05.2014 10:34 14,6 C 17,8 C 67 % 1021,6 hPa 0,0 l/m 2 min 0 min 2,7 UV-I 798 W/m 7,7 km/h (2 Bft)
30.05.2014 10:36 14,8 C 18,9 C 68 % 1021,6 hPa 0,0 l/m 2 min 0 min 2,5 UV-I 875 W/m 7,7 km/h (2 Bft)
30.05.2014 10:38 14,9 C 17,8 C 66 % 1021,6 hPa 0,0 l/m 0 min 0 min 1,4 UV-I 308 W/m 12,9 km/h (3 Bft)
30.05.2014 10:40 14,7 C 16,7 C 66 % 1021,6 hPa 0,0 l/m 0 min 0 min 2,1 UV-I 308 W/m 12,9 km/h (3 Bft)
30.05.2014 10:42 14,6 C 15,6 C 66 % 1021,7 hPa 0,0 l/m 0 min 0 min 1,5 UV-I 318 W/m 12,9 km/h (3 Bft)
30.05.2014 10:44 14,4 C 15,0 C 66 % 1021,7 hPa 0,0 l/m 2 min 0 min 2,1 UV-I 427 W/m 7,7 km/h (2 Bft)
30.05.2014 10:46 14,2 C 15,0 C 67 % 1021,7 hPa 0,0 l/m 0 min 0 min 1,3 UV-I 297 W/m 12,9 km/h (3 Bft)
30.05.2014 10:48 14,2 C 14,4 C 68 % 1021,7 hPa 0,0 l/m 0 min 0 min 1,3 UV-I 308 W/m 10,3 km/h (2 Bft)
30.05.2014 10:50 14,2 C 14,4 C 68 % 1021,7 hPa 0,0 l/m 0 min 0 min 1,3 UV-I 336 W/m 12,9 km/h (3 Bft)
30.05.2014 10:52 14,2 C 14,4 C 70 % 1021,7 hPa 0,0 l/m 0 min 0 min 1,3 UV-I 329 W/m 2,6 km/h (1 Bft)
30.05.2014 10:54 14,2 C 14,4 C 68 % 1021,8 hPa 0,0 l/m 0 min 0 min 1,1 UV-I 294 W/m 10,3 km/h (2 Bft)
30.05.2014 10:56 14,2 C 14,4 C 68 % 1021,7 hPa 0,0 l/m 0 min 0 min 1,0 UV-I 255 W/m 7,7 km/h (2 Bft)
30.05.2014 10:58 13,9 C 14,4 C 68 % 1021,7 hPa 0,0 l/m 0 min 0 min 0,8 UV-I 241 W/m 10,3 km/h (2 Bft)
30.05.2014 11:00 13,8 C 13,9 C 68 % 1021,8 hPa 0,0 l/m 0 min 0 min 0,7 UV-I 232 W/m 0,0 km/h (0 Bft)
30.05.2014 11:02 13,8 C 13,9 C 69 % 1021,8 hPa 0,0 l/m 0 min 0 min 0,6 UV-I 220 W/m 10,3 km/h (2 Bft)
30.05.2014 11:06 13,8 C 13,9 C 69 % 1021,9 hPa 0,0 l/m 0 min 0 min 0,6 UV-I 234 W/m 5,1 km/h (1 Bft)
30.05.2014 11:08 13,7 C 13,9 C 70 % 1021,8 hPa 0,0 l/m 0 min 0 min 0,8 UV-I 274 W/m 0,0 km/h (0 Bft)
30.05.2014 11:10 13,9 C 13,9 C 72 % 1021,9 hPa 0,0 l/m 0 min 0 min 1,1 UV-I 309 W/m 10,3 km/h (2 Bft)
30.05.2014 11:12 13,9 C 13,9 C 70 % 1021,8 hPa 0,0 l/m 0 min 0 min 1,3 UV-I 359 W/m 5,1 km/h (1 Bft)
30.05.2014 11:14 14,1 C 14,4 C 69 % 1021,8 hPa 0,0 l/m 0 min 0 min 1,3 UV-I 350 W/m 2,6 km/h (1 Bft)
30.05.2014 11:16 14,2 C 14,4 C 69 % 1021,8 hPa 0,0 l/m 0 min 0 min 1,2 UV-I 323 W/m 5,1 km/h (1 Bft)
30.05.2014 11:18 14,2 C 14,4 C 70 % 1021,8 hPa 0,0 l/m 0 min 0 min 1,1 UV-I 308 W/m 5,1 km/h (1 Bft)
30.05.2014 11:20 14,2 C 14,4 C 71 % 1021,8 hPa 0,0 l/m 0 min 0 min 1,0 UV-I 292 W/m 0,0 km/h (0 Bft)
30.05.2014 11:22 14,2 C 14,4 C 68 % 1021,9 hPa 0,0 l/m 0 min 0 min 1,0 UV-I 294 W/m 7,7 km/h (2 Bft)
30.05.2014 11:24 14,2 C 14,4 C 68 % 1021,9 hPa 0,0 l/m 0 min 0 min 1,1 UV-I 309 W/m 7,7 km/h (2 Bft)
30.05.2014 11:26 14,2 C 14,4 C 69 % 1021,9 hPa 0,0 l/m 0 min 0 min 1,3 UV-I 350 W/m 2,6 km/h (1 Bft)
30.05.2014 11:28 14,2 C 14,4 C 68 % 1021,9 hPa 0,0 l/m 0 min 0 min 1,5 UV-I 366 W/m 7,7 km/h (2 Bft)
30.05.2014 11:30 14,2 C 15,0 C 70 % 1021,9 hPa 0,0 l/m 0 min 0 min 1,6 UV-I 406 W/m 7,7 km/h (2 Bft)
30.05.2014 11:32 14,2 C 15,0 C 69 % 1021,9 hPa 0,0 l/m 0 min 0 min 1,7 UV-I 425 W/m 12,9 km/h (3 Bft)
30.05.2014 11:34 14,2 C 15,0 C 69 % 1021,9 hPa 0,0 l/m 2 min 0 min 2,1 UV-I 475 W/m 7,7 km/h (2 Bft)
30.05.2014 11:36 14,2 C 15,6 C 68 % 1021,9 hPa 0,0 l/m 2 min 0 min 1,9 UV-I 446 W/m 0,0 km/h (0 Bft)
30.05.2014 11:38 14,2 C 15,6 C 70 % 1021,9 hPa 0,0 l/m 2 min 0 min 1,9 UV-I 439 W/m 0,0 km/h (0 Bft)
30.05.2014 11:40 14,4 C 15,6 C 69 % 1021,9 hPa 0,0 l/m 2 min 0 min 2,0 UV-I 478 W/m 7,7 km/h (2 Bft)
30.05.2014 11:42 14,6 C 15,6 C 67 % 1021,9 hPa 0,0 l/m 2 min 0 min 2,1 UV-I 485 W/m 12,9 km/h (3 Bft)
30.05.2014 11:44 14,7 C 15,6 C 67 % 1021,9 hPa 0,0 l/m 2 min 0 min 2,2 UV-I 499 W/m 10,3 km/h (2 Bft)
30.05.2014 11:46 14,8 C 15,6 C 65 % 1021,9 hPa 0,0 l/m 2 min 0 min 2,4 UV-I 531 W/m 12,9 km/h (3 Bft)
30.05.2014 11:48 14,8 C 15,6 C 64 % 1021,9 hPa 0,0 l/m 2 min 0 min 2,4 UV-I 504 W/m 15,4 km/h (3 Bft)
30.05.2014 11:50 14,8 C 16,1 C 64 % 1021,9 hPa 0,0 l/m 2 min 0 min 2,7 UV-I 519 W/m 12,9 km/h (3 Bft)
30.05.2014 11:52 14,8 C 16,1 C 65 % 1021,9 hPa 0,0 l/m 2 min 0 min 2,4 UV-I 504 W/m 18,0 km/h (3 Bft)
30.05.2014 11:54 14,9 C 16,1 C 66 % 1021,8 hPa 0,0 l/m 2 min 0 min 2,2 UV-I 478 W/m 10,3 km/h (2 Bft)
30.05.2014 11:56 15,1 C 16,1 C 65 % 1021,9 hPa 0,0 l/m 2 min 0 min 2,2 UV-I 468 W/m 7,7 km/h (2 Bft)
30.05.2014 11:58 15,0 C 16,1 C 64 % 1021,9 hPa 0,0 l/m 2 min 0 min 2,2 UV-I 468 W/m 10,3 km/h (2 Bft)
30.05.2014 12:00 14,9 C 15,6 C 64 % 1021,8 hPa 0,0 l/m 2 min 0 min 2,0 UV-I 455 W/m 2,6 km/h (1 Bft)
30.05.2014 12:02 14,9 C 15,6 C 65 % 1021,8 hPa 0,0 l/m 2 min 0 min 2,4 UV-I 515 W/m 7,7 km/h (2 Bft)
30.05.2014 12:06 15,1 C 16,1 C 65 % 1021,9 hPa 0,0 l/m 2 min 0 min 2,7 UV-I 580 W/m 10,3 km/h (2 Bft)
30.05.2014 12:08 15,3 C 16,7 C 66 % 1021,9 hPa 0,0 l/m 2 min 0 min 2,3 UV-I 670 W/m 12,9 km/h (3 Bft)
30.05.2014 12:10 15,5 C 16,7 C 63 % 1021,8 hPa 0,0 l/m 0 min 0 min 2,3 UV-I 403 W/m 12,9 km/h (3 Bft)
30.05.2014 12:12 15,4 C 16,7 C 63 % 1021,8 hPa 0,0 l/m 0 min 0 min 4,0 UV-I 406 W/m 7,7 km/h (2 Bft)
30.05.2014 12:14 15,5 C 16,7 C 62 % 1021,8 hPa 0,0 l/m 0 min 0 min 2,4 UV-I 434 W/m 10,3 km/h (2 Bft)
30.05.2014 12:16 15,5 C 16,7 C 62 % 1021,9 hPa 0,0 l/m 2 min 0 min 3,3 UV-I 497 W/m 15,4 km/h (3 Bft)
30.05.2014 12:18 15,4 C 16,7 C 62 % 1021,8 hPa 0,0 l/m 2 min 0 min 2,7 UV-I 526 W/m 15,4 km/h (3 Bft)
30.05.2014 12:20 15,5 C 16,1 C 64 % 1021,8 hPa 0,0 l/m 0 min 0 min 2,1 UV-I 367 W/m 10,3 km/h (2 Bft)
30.05.2014 12:22 15,5 C 16,7 C 64 % 1021,8 hPa 0,0 l/m 0 min 0 min 3,3 UV-I 452 W/m 18,0 km/h (3 Bft)
30.05.2014 12:24 15,7 C 18,9 C 65 % 1021,9 hPa 0,0 l/m 2 min 0 min 4,7 UV-I 1046 W/m 23,2 km/h (4 Bft)
30.05.2014 12:26 16,1 C 18,9 C 65 % 1021,9 hPa 0,0 l/m 2 min 0 min 3,1 UV-I 770 W/m 10,3 km/h (2 Bft)
30.05.2014 12:28 16,2 C 17,8 C 63 % 1021,9 hPa 0,0 l/m 0 min 0 min 2,2 UV-I 357 W/m 10,3 km/h (2 Bft)
30.05.2014 12:30 15,8 C 17,2 C 62 % 1021,9 hPa 0,0 l/m 0 min 0 min 2,2 UV-I 390 W/m 10,3 km/h (2 Bft)
30.05.2014 12:32 15,7 C 17,8 C 63 % 1021,9 hPa 0,0 l/m 0 min 0 min 3,0 UV-I 390 W/m 18,0 km/h (3 Bft)
30.05.2014 12:34 15,9 C 18,3 C 64 % 1021,9 hPa 0,0 l/m 0 min 0 min 4,5 UV-I 390 W/m 10,3 km/h (2 Bft)
30.05.2014 12:36 16,2 C 19,4 C 64 % 1022,0 hPa 0,0 l/m 2 min 0 min 4,4 UV-I 860 W/m 10,3 km/h (2 Bft)
30.05.2014 12:38 16,3 C 20,0 C 60 % 1022,0 hPa 0,0 l/m 2 min 0 min 4,8 UV-I 976 W/m 7,7 km/h (2 Bft)
30.05.2014 12:40 16,4 C 20,6 C 62 % 1022,0 hPa 0,0 l/m 2 min 0 min 4,7 UV-I 965 W/m 10,3 km/h (2 Bft)
30.05.2014 12:42 16,3 C 19,4 C 62 % 1021,9 hPa 0,0 l/m 0 min 0 min 2,2 UV-I 278 W/m 20,6 km/h (4 Bft)
30.05.2014 12:44 16,1 C 18,3 C 61 % 1022,0 hPa 0,0 l/m 0 min 0 min 4,9 UV-I 281 W/m 12,9 km/h (3 Bft)
30.05.2014 12:46 16,1 C 18,3 C 63 % 1021,9 hPa 0,0 l/m 0 min 0 min 4,7 UV-I 281 W/m 12,9 km/h (3 Bft)
30.05.2014 12:48 16,2 C 17,8 C 63 % 1021,9 hPa 0,0 l/m 0 min 0 min 2,4 UV-I 281 W/m 15,4 km/h (3 Bft)
30.05.2014 12:50 16,1 C 17,2 C 62 % 1021,9 hPa 0,0 l/m 0 min 0 min 4,8 UV-I 352 W/m 7,7 km/h (2 Bft)
30.05.2014 12:52 15,9 C 16,1 C 62 % 1022,0 hPa 0,0 l/m 0 min 0 min 2,3 UV-I 374 W/m 18,0 km/h (3 Bft)
30.05.2014 12:54 15,7 C 16,1 C 63 % 1021,9 hPa 0,0 l/m 0 min 0 min 2,4 UV-I 424 W/m 12,9 km/h (3 Bft)
30.05.2014 12:56 15,6 C 16,1 C 62 % 1022,0 hPa 0,0 l/m 0 min 0 min 2,4 UV-I 424 W/m 10,3 km/h (2 Bft)
30.05.2014 12:58 15,6 C 16,1 C 65 % 1022,0 hPa 0,0 l/m 2 min 0 min 2,7 UV-I 485 W/m 2,6 km/h (1 Bft)
30.05.2014 13:00 15,8 C 16,7 C 64 % 1022,0 hPa 0,0 l/m 0 min 0 min 2,7 UV-I 464 W/m 18,0 km/h (3 Bft)
30.05.2014 13:02 16,0 C 17,2 C 63 % 1022,0 hPa 0,0 l/m 0 min 0 min 2,7 UV-I 464 W/m 12,9 km/h (3 Bft)
30.05.2014 13:06 16,1 C 16,7 C 61 % 1022,0 hPa 0,0 l/m 0 min 0 min 2,3 UV-I 373 W/m 12,9 km/h (3 Bft)
30.05.2014 13:08 15,9 C 16,7 C 62 % 1022,0 hPa 0,0 l/m 0 min 0 min 2,4 UV-I 418 W/m 10,3 km/h (2 Bft)
30.05.2014 13:10 15,6 C 16,7 C 62 % 1022,0 hPa 0,0 l/m 0 min 0 min 2,4 UV-I 468 W/m 18,0 km/h (3 Bft)
30.05.2014 13:12 15,8 C 17,8 C 66 % 1022,1 hPa 0,0 l/m 2 min 0 min 2,5 UV-I 1174 W/m 7,7 km/h (2 Bft)
30.05.2014 13:14 16,3 C 18,3 C 63 % 1022,0 hPa 0,0 l/m 2 min 0 min 2,5 UV-I 1174 W/m 12,9 km/h (3 Bft)
30.05.2014 13:16 16,7 C 18,3 C 63 % 1022,0 hPa 0,0 l/m 2 min 0 min 2,4 UV-I 840 W/m 15,4 km/h (3 Bft)
30.05.2014 13:18 16,9 C 18,3 C 61 % 1022,1 hPa 0,0 l/m 0 min 0 min 2,2 UV-I 371 W/m 10,3 km/h (2 Bft)
30.05.2014 13:20 16,8 C 17,2 C 61 % 1022,1 hPa 0,0 l/m 0 min 0 min 2,2 UV-I 357 W/m 12,9 km/h (3 Bft)
30.05.2014 13:22 16,6 C 16,7 C 62 % 1022,0 hPa 0,0 l/m 0 min 0 min 2,3 UV-I 388 W/m 0,0 km/h (0 Bft)
30.05.2014 13:24 16,1 C 16,7 C 61 % 1022,0 hPa 0,0 l/m 0 min 0 min 2,4 UV-I 381 W/m 10,3 km/h (2 Bft)
30.05.2014 13:26 16,1 C 16,7 C 65 % 1022,0 hPa 0,0 l/m 0 min 0 min 2,5 UV-I 424 W/m 10,3 km/h (2 Bft)
30.05.2014 13:28 16,6 C 17,8 C 64 % 1022,1 hPa 0,0 l/m 2 min 0 min 2,4 UV-I 1051 W/m 12,9 km/h (3 Bft)
30.05.2014 13:30 17,2 C 17,8 C 64 % 1022,1 hPa 0,0 l/m 2 min 0 min 2,3 UV-I 1025 W/m 7,7 km/h (2 Bft)
30.05.2014 13:32 17,2 C 17,8 C 59 % 1022,2 hPa 0,0 l/m 2 min 0 min 2,2 UV-I 1014 W/m 10,3 km/h (2 Bft)
30.05.2014 13:34 17,1 C 17,8 C 60 % 1022,2 hPa 0,0 l/m 0 min 0 min 2,2 UV-I 264 W/m 10,3 km/h (2 Bft)
30.05.2014 13:36 16,7 C 17,2 C 60 % 1022,2 hPa 0,0 l/m 0 min 0 min 2,3 UV-I 396 W/m 12,9 km/h (3 Bft)
30.05.2014 13:38 16,7 C 17,2 C 63 % 1022,2 hPa 0,0 l/m 2 min 0 min 2,4 UV-I 1005 W/m 10,3 km/h (2 Bft)
30.05.2014 13:40 16,7 C 17,2 C 62 % 1022,2 hPa 0,0 l/m 2 min 0 min 2,4 UV-I 1009 W/m 12,9 km/h (3 Bft)
30.05.2014 13:42 16,5 C 16,1 C 59 % 1022,1 hPa 0,0 l/m 0 min 0 min 2,9 UV-I 297 W/m 18,0 km/h (3 Bft)
30.05.2014 13:44 16,1 C 15,6 C 61 % 1022,2 hPa 0,0 l/m 0 min 0 min 2,2 UV-I 302 W/m 15,4 km/h (3 Bft)
30.05.2014 13:46 16,1 C 16,1 C 63 % 1022,2 hPa 0,0 l/m 0 min 0 min 2,2 UV-I 350 W/m 12,9 km/h (3 Bft)
30.05.2014 13:48 16,2 C 16,1 C 62 % 1022,2 hPa 0,0 l/m 2 min 0 min 4,2 UV-I 1051 W/m 12,9 km/h (3 Bft)
30.05.2014 13:50 16,6 C 16,7 C 63 % 1022,1 hPa 0,0 l/m 2 min 0 min 4,5 UV-I 1044 W/m 7,7 km/h (2 Bft)
30.05.2014 13:52 16,9 C 17,2 C 60 % 1022,2 hPa 0,0 l/m 2 min 0 min 4,8 UV-I 1027 W/m 10,3 km/h (2 Bft)
30.05.2014 13:54 17,0 C 17,8 C 59 % 1022,0 hPa 0,0 l/m 2 min 0 min 4,9 UV-I 1053 W/m 7,7 km/h (2 Bft)
30.05.2014 13:56 17,2 C 17,8 C 60 % 1022,1 hPa 0,0 l/m 2 min 0 min 4,7 UV-I 1086 W/m 12,9 km/h (3 Bft)
30.05.2014 13:58 17,1 C 17,8 C 60 % 1022,1 hPa 0,0 l/m 2 min 0 min 4,4 UV-I 1086 W/m 18,0 km/h (3 Bft)
30.05.2014 14:00 16,7 C 17,2 C 60 % 1022,0 hPa 0,0 l/m 0 min 0 min 3,2 UV-I 403 W/m 12,9 km/h (3 Bft)
30.05.2014 14:02 16,6 C 18,3 C 61 % 1022,1 hPa 0,0 l/m 0 min 0 min 3,5 UV-I 403 W/m 5,1 km/h (1 Bft)
30.05.2014 14:06 17,0 C 20,6 C 61 % 1022,1 hPa 0,0 l/m 2 min 0 min 4,5 UV-I 1004 W/m 15,4 km/h (3 Bft)
30.05.2014 14:08 17,3 C 21,7 C 58 % 1022,1 hPa 0,0 l/m 2 min 0 min 4,4 UV-I 988 W/m 10,3 km/h (2 Bft)
30.05.2014 14:10 17,3 C 21,7 C 57 % 1022,1 hPa 0,0 l/m 2 min 0 min 4,3 UV-I 967 W/m 15,4 km/h (3 Bft)
30.05.2014 14:12 17,4 C 20,6 C 59 % 1022,1 hPa 0,0 l/m 2 min 0 min 2,8 UV-I 967 W/m 7,7 km/h (2 Bft)
30.05.2014 14:14 17,2 C 18,9 C 58 % 1022,1 hPa 0,0 l/m 0 min 0 min 2,1 UV-I 341 W/m 10,3 km/h (2 Bft)
30.05.2014 14:16 16,8 C 17,2 C 59 % 1022,1 hPa 0,0 l/m 0 min 0 min 2,0 UV-I 308 W/m 12,9 km/h (3 Bft)
30.05.2014 14:18 16,3 C 16,7 C 60 % 1022,1 hPa 0,0 l/m 0 min 0 min 2,0 UV-I 301 W/m 7,7 km/h (2 Bft)
30.05.2014 14:20 16,0 C 16,1 C 60 % 1022,1 hPa 0,0 l/m 0 min 0 min 2,1 UV-I 299 W/m 10,3 km/h (2 Bft)
30.05.2014 14:22 16,0 C 16,1 C 62 % 1022,1 hPa 0,0 l/m 0 min 0 min 3,3 UV-I 322 W/m 10,3 km/h (2 Bft)
30.05.2014 14:24 16,1 C 16,7 C 62 % 1022,1 hPa 0,0 l/m 0 min 0 min 3,2 UV-I 371 W/m 10,3 km/h (2 Bft)
30.05.2014 14:26 16,2 C 16,7 C 63 % 1022,1 hPa 0,0 l/m 2 min 0 min 4,8 UV-I 1014 W/m 23,2 km/h (4 Bft)
30.05.2014 14:28 16,7 C 17,2 C 61 % 1022,1 hPa 0,0 l/m 2 min 0 min 4,7 UV-I 1041 W/m 18,0 km/h (3 Bft)
30.05.2014 14:30 17,1 C 18,3 C 59 % 1022,0 hPa 0,0 l/m 2 min 0 min 4,5 UV-I 1041 W/m 15,4 km/h (3 Bft)
30.05.2014 14:32 17,3 C 18,3 C 60 % 1022,1 hPa 0,0 l/m 2 min 0 min 4,2 UV-I 1000 W/m 7,7 km/h (2 Bft)
30.05.2014 14:34 17,4 C 18,3 C 62 % 1022,1 hPa 0,0 l/m 0 min 0 min 1,7 UV-I 327 W/m 2,6 km/h (1 Bft)
30.05.2014 14:36 17,3 C 17,8 C 59 % 1022,1 hPa 0,0 l/m 0 min 0 min 1,7 UV-I 320 W/m 10,3 km/h (2 Bft)
30.05.2014 14:38 17,2 C 17,8 C 59 % 1022,1 hPa 0,0 l/m 0 min 0 min 1,8 UV-I 336 W/m 7,7 km/h (2 Bft)
30.05.2014 14:40 16,9 C 17,2 C 59 % 1022,1 hPa 0,0 l/m 0 min 0 min 4,3 UV-I 378 W/m 2,6 km/h (1 Bft)
30.05.2014 14:42 16,8 C 17,2 C 61 % 1022,1 hPa 0,0 l/m 0 min 0 min 2,0 UV-I 345 W/m 10,3 km/h (2 Bft)
30.05.2014 14:44 16,8 C 17,2 C 63 % 1022,1 hPa 0,0 l/m 0 min 0 min 2,0 UV-I 366 W/m 7,7 km/h (2 Bft)
30.05.2014 14:46 16,7 C 17,2 C 62 % 1022,1 hPa 0,0 l/m 0 min 0 min 2,3 UV-I 431 W/m 10,3 km/h (2 Bft)
30.05.2014 14:48 16,7 C 17,2 C 63 % 1022,2 hPa 0,0 l/m 0 min 0 min 2,4 UV-I 450 W/m 5,1 km/h (1 Bft)
30.05.2014 14:50 16,7 C 17,2 C 60 % 1022,2 hPa 0,0 l/m 0 min 0 min 2,5 UV-I 431 W/m 12,9 km/h (3 Bft)
30.05.2014 14:52 16,6 C 16,7 C 61 % 1022,3 hPa 0,0 l/m 2 min 0 min 3,6 UV-I 545 W/m 7,7 km/h (2 Bft)
30.05.2014 14:54 16,6 C 17,2 C 62 % 1022,2 hPa 0,0 l/m 2 min 0 min 4,5 UV-I 1046 W/m 7,7 km/h (2 Bft)
30.05.2014 14:56 16,7 C 17,2 C 59 % 1022,2 hPa 0,0 l/m 2 min 0 min 4,5 UV-I 1063 W/m 15,4 km/h (3 Bft)
30.05.2014 14:58 16,6 C 17,2 C 60 % 1022,2 hPa 0,0 l/m 2 min 0 min 2,1 UV-I 1063 W/m 18,0 km/h (3 Bft)
30.05.2014 15:00 16,4 C 16,7 C 61 % 1022,2 hPa 0,0 l/m 0 min 0 min 1,9 UV-I 330 W/m 5,1 km/h (1 Bft)
30.05.2014 15:02 16,4 C 16,7 C 62 % 1022,2 hPa 0,0 l/m 0 min 0 min 1,8 UV-I 320 W/m 18,0 km/h (3 Bft)
30.05.2014 15:06 16,4 C 16,7 C 61 % 1022,2 hPa 0,0 l/m 0 min 0 min 1,9 UV-I 325 W/m 12,9 km/h (3 Bft)
30.05.2014 15:08 16,6 C 17,2 C 64 % 1022,2 hPa 0,0 l/m 0 min 0 min 2,0 UV-I 352 W/m 2,6 km/h (1 Bft)
30.05.2014 15:10 16,7 C 17,2 C 61 % 1022,2 hPa 0,0 l/m 0 min 0 min 4,1 UV-I 352 W/m 12,9 km/h (3 Bft)
30.05.2014 15:12 16,7 C 17,2 C 60 % 1022,2 hPa 0,0 l/m 2 min 0 min 4,0 UV-I 953 W/m 12,9 km/h (3 Bft)
30.05.2014 15:14 16,7 C 17,8 C 61 % 1022,2 hPa 0,0 l/m 2 min 0 min 4,0 UV-I 990 W/m 0,0 km/h (0 Bft)
30.05.2014 15:16 17,2 C 18,9 C 63 % 1022,2 hPa 0,0 l/m 2 min 0 min 4,0 UV-I 1009 W/m 12,9 km/h (3 Bft)
30.05.2014 15:18 17,7 C 20,6 C 63 % 1022,2 hPa 0,0 l/m 2 min 0 min 3,9 UV-I 979 W/m 2,6 km/h (1 Bft)
30.05.2014 15:20 17,8 C 21,1 C 60 % 1022,2 hPa 0,0 l/m 2 min 0 min 3,9 UV-I 896 W/m 10,3 km/h (2 Bft)
30.05.2014 15:22 17,9 C 20,0 C 60 % 1022,2 hPa 0,0 l/m 0 min 0 min 2,2 UV-I 429 W/m 10,3 km/h (2 Bft)
30.05.2014 15:24 17,7 C 21,1 C 60 % 1022,2 hPa 0,0 l/m 0 min 0 min 4,0 UV-I 429 W/m 18,0 km/h (3 Bft)
30.05.2014 15:26 17,9 C 22,2 C 60 % 1022,2 hPa 0,0 l/m 2 min 0 min 3,7 UV-I 719 W/m 7,7 km/h (2 Bft)
30.05.2014 15:28 17,8 C 23,3 C 57 % 1022,2 hPa 0,0 l/m 2 min 0 min 3,8 UV-I 935 W/m 15,4 km/h (3 Bft)
30.05.2014 15:30 18,2 C 23,9 C 62 % 1022,2 hPa 0,0 l/m 2 min 0 min 3,9 UV-I 944 W/m 18,0 km/h (3 Bft)
30.05.2014 15:32 18,2 C 24,4 C 57 % 1022,2 hPa 0,0 l/m 2 min 0 min 3,7 UV-I 923 W/m 7,7 km/h (2 Bft)
30.05.2014 15:34 18,4 C 24,4 C 57 % 1022,2 hPa 0,0 l/m 2 min 0 min 2,9 UV-I 912 W/m 12,9 km/h (3 Bft)
30.05.2014 15:36 18,4 C 24,4 C 57 % 1022,2 hPa 0,0 l/m 2 min 0 min 3,6 UV-I 888 W/m 12,9 km/h (3 Bft)
30.05.2014 15:38 18,2 C 23,9 C 56 % 1022,2 hPa 0,0 l/m 2 min 0 min 3,8 UV-I 937 W/m 10,3 km/h (2 Bft)
30.05.2014 15:40 18,2 C 23,3 C 57 % 1022,2 hPa 0,0 l/m 2 min 0 min 3,7 UV-I 930 W/m 10,3 km/h (2 Bft)
30.05.2014 15:42 18,1 C 22,2 C 56 % 1022,2 hPa 0,0 l/m 2 min 0 min 3,7 UV-I 937 W/m 12,9 km/h (3 Bft)
30.05.2014 15:44 17,7 C 21,1 C 57 % 1022,2 hPa 0,0 l/m 2 min 0 min 3,5 UV-I 935 W/m 7,7 km/h (2 Bft)
30.05.2014 15:46 17,6 C 20,6 C 60 % 1022,2 hPa 0,0 l/m 2 min 0 min 3,5 UV-I 932 W/m 10,3 km/h (2 Bft)
30.05.2014 15:48 17,7 C 20,6 C 61 % 1022,2 hPa 0,0 l/m 2 min 0 min 1,9 UV-I 954 W/m 10,3 km/h (2 Bft)
30.05.2014 15:50 17,8 C 20,0 C 60 % 1022,2 hPa 0,0 l/m 0 min 0 min 1,8 UV-I 345 W/m 18,0 km/h (3 Bft)
30.05.2014 15:52 17,7 C 18,9 C 59 % 1022,2 hPa 0,0 l/m 0 min 0 min 1,9 UV-I 352 W/m 7,7 km/h (2 Bft)
30.05.2014 15:54 17,5 C 18,9 C 59 % 1022,2 hPa 0,0 l/m 0 min 0 min 3,4 UV-I 360 W/m 7,7 km/h (2 Bft)
30.05.2014 15:56 17,6 C 19,4 C 60 % 1022,1 hPa 0,0 l/m 2 min 0 min 3,4 UV-I 858 W/m 5,1 km/h (1 Bft)
30.05.2014 15:58 17,6 C 18,9 C 61 % 1022,2 hPa 0,0 l/m 2 min 0 min 3,3 UV-I 830 W/m 12,9 km/h (3 Bft)
30.05.2014 16:00 17,6 C 18,9 C 59 % 1022,1 hPa 0,0 l/m 2 min 0 min 3,3 UV-I 837 W/m 18,0 km/h (3 Bft)
30.05.2014 16:02 17,3 C 17,8 C 60 % 1022,1 hPa 0,0 l/m 2 min 0 min 2,3 UV-I 837 W/m 18,0 km/h (3 Bft)
30.05.2014 16:06 17,5 C 17,8 C 60 % 1022,1 hPa 0,0 l/m 2 min 0 min 2,0 UV-I 406 W/m 10,3 km/h (2 Bft)
30.05.2014 16:08 17,4 C 17,8 C 60 % 1022,1 hPa 0,0 l/m 2 min 0 min 2,5 UV-I 406 W/m 12,9 km/h (3 Bft)
30.05.2014 16:10 17,7 C 18,3 C 61 % 1022,1 hPa 0,0 l/m 2 min 0 min 2,7 UV-I 694 W/m 10,3 km/h (2 Bft)
30.05.2014 16:12 17,5 C 17,8 C 58 % 1022,1 hPa 0,0 l/m 2 min 0 min 2,0 UV-I 694 W/m 10,3 km/h (2 Bft)
30.05.2014 16:14 17,3 C 17,2 C 59 % 1022,2 hPa 0,0 l/m 2 min 0 min 2,2 UV-I 701 W/m 7,7 km/h (2 Bft)
30.05.2014 16:16 17,2 C 17,2 C 62 % 1022,1 hPa 0,0 l/m 2 min 0 min 2,8 UV-I 687 W/m 7,7 km/h (2 Bft)
30.05.2014 16:18 17,1 C 17,2 C 61 % 1022,1 hPa 0,0 l/m 2 min 0 min 2,9 UV-I 768 W/m 7,7 km/h (2 Bft)
30.05.2014 16:20 17,4 C 17,8 C 63 % 1022,1 hPa 0,0 l/m 2 min 0 min 2,9 UV-I 826 W/m 7,7 km/h (2 Bft)
30.05.2014 16:22 17,4 C 17,8 C 58 % 1022,1 hPa 0,0 l/m 2 min 0 min 2,9 UV-I 830 W/m 10,3 km/h (2 Bft)
30.05.2014 16:24 17,2 C 17,8 C 61 % 1022,1 hPa 0,0 l/m 2 min 0 min 2,8 UV-I 800 W/m 12,9 km/h (3 Bft)
30.05.2014 16:26 17,3 C 17,8 C 62 % 1022,2 hPa 0,0 l/m 2 min 0 min 2,5 UV-I 800 W/m 2,6 km/h (1 Bft)
30.05.2014 16:28 17,5 C 17,8 C 61 % 1022,2 hPa 0,0 l/m 2 min 0 min 1,5 UV-I 800 W/m 12,9 km/h (3 Bft)
30.05.2014 16:30 17,6 C 17,8 C 61 % 1022,1 hPa 0,0 l/m 0 min 0 min 1,3 UV-I 225 W/m 15,4 km/h (3 Bft)
30.05.2014 16:32 17,4 C 17,2 C 61 % 1022,1 hPa 0,0 l/m 0 min 0 min 1,2 UV-I 229 W/m 5,1 km/h (1 Bft)
30.05.2014 16:34 17,1 C 16,7 C 60 % 1022,2 hPa 0,0 l/m 0 min 0 min 1,2 UV-I 241 W/m 20,6 km/h (4 Bft)
30.05.2014 16:36 16,8 C 16,7 C 63 % 1022,2 hPa 0,0 l/m 0 min 0 min 1,3 UV-I 269 W/m 7,7 km/h (2 Bft)
30.05.2014 16:38 16,8 C 16,7 C 64 % 1022,1 hPa 0,0 l/m 0 min 0 min 1,5 UV-I 360 W/m 10,3 km/h (2 Bft)
30.05.2014 16:40 16,9 C 16,7 C 63 % 1022,1 hPa 0,0 l/m 2 min 0 min 1,7 UV-I 503 W/m 5,1 km/h (1 Bft)
30.05.2014 16:42 16,9 C 16,7 C 61 % 1022,2 hPa 0,0 l/m 0 min 0 min 1,3 UV-I 283 W/m 12,9 km/h (3 Bft)
30.05.2014 16:44 16,8 C 16,7 C 61 % 1022,2 hPa 0,0 l/m 0 min 0 min 1,3 UV-I 294 W/m 7,7 km/h (2 Bft)
30.05.2014 16:46 16,6 C 16,7 C 61 % 1022,1 hPa 0,0 l/m 0 min 0 min 1,3 UV-I 304 W/m 10,3 km/h (2 Bft)
30.05.2014 16:48 16,6 C 16,7 C 63 % 1022,1 hPa 0,0 l/m 0 min 0 min 1,9 UV-I 318 W/m 2,6 km/h (1 Bft)
30.05.2014 16:50 16,6 C 16,1 C 62 % 1022,1 hPa 0,0 l/m 0 min 0 min 1,3 UV-I 318 W/m 12,9 km/h (3 Bft)
30.05.2014 16:52 16,6 C 16,1 C 62 % 1022,1 hPa 0,0 l/m 2 min 0 min 1,3 UV-I 408 W/m 2,6 km/h (1 Bft)
30.05.2014 16:54 16,5 C 16,7 C 63 % 1022,1 hPa 0,0 l/m 2 min 0 min 1,7 UV-I 543 W/m 0,0 km/h (0 Bft)
30.05.2014 16:56 16,4 C 16,1 C 62 % 1022,2 hPa 0,0 l/m 2 min 0 min 1,3 UV-I 392 W/m 15,4 km/h (3 Bft)
30.05.2014 16:58 16,4 C 16,1 C 63 % 1022,1 hPa 0,0 l/m 2 min 0 min 1,3 UV-I 355 W/m 12,9 km/h (3 Bft)
30.05.2014 17:00 16,2 C 16,1 C 62 % 1022,1 hPa 0,0 l/m 2 min 0 min 1,8 UV-I 496 W/m 10,3 km/h (2 Bft)
30.05.2014 17:02 16,3 C 16,7 C 63 % 1022,1 hPa 0,0 l/m 2 min 0 min 1,3 UV-I 533 W/m 2,6 km/h (1 Bft)
30.05.2014 17:06 16,9 C 17,2 C 62 % 1022,2 hPa 0,0 l/m 2 min 0 min 1,4 UV-I 487 W/m 20,6 km/h (4 Bft)
30.05.2014 17:08 17,1 C 17,2 C 61 % 1022,2 hPa 0,0 l/m 2 min 0 min 1,2 UV-I 503 W/m 12,9 km/h (3 Bft)
30.05.2014 17:10 17,1 C 17,2 C 60 % 1022,2 hPa 0,0 l/m 2 min 0 min 1,7 UV-I 503 W/m 10,3 km/h (2 Bft)
30.05.2014 17:12 17,1 C 16,7 C 61 % 1022,2 hPa 0,0 l/m 0 min 0 min 0,9 UV-I 218 W/m 12,9 km/h (3 Bft)
30.05.2014 17:14 16,7 C 16,1 C 61 % 1022,2 hPa 0,0 l/m 0 min 0 min 1,7 UV-I 281 W/m 15,4 km/h (3 Bft)
30.05.2014 17:16 16,4 C 16,1 C 62 % 1022,1 hPa 0,0 l/m 2 min 0 min 1,7 UV-I 666 W/m 10,3 km/h (2 Bft)
30.05.2014 17:18 16,4 C 16,1 C 63 % 1022,1 hPa 0,0 l/m 2 min 0 min 1,6 UV-I 610 W/m 10,3 km/h (2 Bft)
30.05.2014 17:20 16,6 C 16,7 C 63 % 1022,2 hPa 0,0 l/m 2 min 0 min 1,5 UV-I 585 W/m 7,7 km/h (2 Bft)
30.05.2014 17:22 16,9 C 16,7 C 64 % 1022,1 hPa 0,0 l/m 2 min 0 min 1,5 UV-I 636 W/m 10,3 km/h (2 Bft)
30.05.2014 17:24 17,1 C 16,7 C 62 % 1022,2 hPa 0,0 l/m 2 min 0 min 1,4 UV-I 624 W/m 20,6 km/h (4 Bft)
30.05.2014 17:26 17,2 C 16,7 C 61 % 1022,2 hPa 0,0 l/m 2 min 0 min 1,2 UV-I 490 W/m 23,2 km/h (4 Bft)
30.05.2014 17:28 17,1 C 16,7 C 63 % 1022,1 hPa 0,0 l/m 2 min 0 min 0,9 UV-I 450 W/m 0,0 km/h (0 Bft)
30.05.2014 17:30 17,2 C 16,7 C 64 % 1022,1 hPa 0,0 l/m 0 min 0 min 0,7 UV-I 267 W/m 12,9 km/h (3 Bft)
30.05.2014 17:32 17,1 C 16,1 C 62 % 1022,1 hPa 0,0 l/m 0 min 0 min 0,6 UV-I 241 W/m 12,9 km/h (3 Bft)
30.05.2014 17:34 17,0 C 16,1 C 61 % 1022,1 hPa 0,0 l/m 0 min 0 min 0,6 UV-I 204 W/m 12,9 km/h (3 Bft)
30.05.2014 17:36 16,8 C 16,1 C 61 % 1022,1 hPa 0,0 l/m 0 min 0 min 0,5 UV-I 209 W/m 12,9 km/h (3 Bft)
30.05.2014 17:38 16,7 C 16,1 C 62 % 1022,3 hPa 0,0 l/m 0 min 0 min 0,5 UV-I 232 W/m 10,3 km/h (2 Bft)
30.05.2014 17:40 16,7 C 16,7 C 63 % 1022,2 hPa 0,0 l/m 2 min 0 min 0,6 UV-I 316 W/m 10,3 km/h (2 Bft)
30.05.2014 17:42 16,7 C 16,7 C 63 % 1022,2 hPa 0,0 l/m 2 min 0 min 0,0 UV-I 316 W/m 18,0 km/h (3 Bft)
30.05.2014 17:44 16,7 C 16,7 C 62 % 1022,2 hPa 0,0 l/m 0 min 0 min 0,0 UV-I 202 W/m 10,3 km/h (2 Bft)
30.05.2014 17:46 16,5 C 16,1 C 63 % 1022,3 hPa 0,0 l/m 0 min 0 min 0,0 UV-I 192 W/m 2,6 km/h (1 Bft)
30.05.2014 17:48 16,4 C 16,1 C 62 % 1022,3 hPa 0,0 l/m 0 min 0 min 0,0 UV-I 197 W/m 12,9 km/h (3 Bft)
30.05.2014 17:50 16,3 C 16,1 C 63 % 1022,3 hPa 0,0 l/m 0 min 0 min 0,0 UV-I 213 W/m 18,0 km/h (3 Bft)
30.05.2014 17:52 16,3 C 16,1 C 63 % 1022,3 hPa 0,0 l/m 0 min 0 min 0,0 UV-I 227 W/m 10,3 km/h (2 Bft)
30.05.2014 17:54 16,2 C 16,1 C 63 % 1022,3 hPa 0,0 l/m 0 min 0 min 0,0 UV-I 234 W/m 12,9 km/h (3 Bft)
30.05.2014 17:56 16,2 C 16,1 C 63 % 1022,2 hPa 0,0 l/m 0 min 0 min 0,0 UV-I 230 W/m 7,7 km/h (2 Bft)
30.05.2014 17:58 16,3 C 16,1 C 64 % 1022,2 hPa 0,0 l/m 0 min 0 min 0,0 UV-I 230 W/m 10,3 km/h (2 Bft)
30.05.2014 18:00 16,3 C 16,1 C 63 % 1022,2 hPa 0,0 l/m 0 min 0 min 0,0 UV-I 251 W/m 7,7 km/h (2 Bft)
30.05.2014 18:02 16,3 C 16,1 C 64 % 1022,1 hPa 0,0 l/m 0 min 0 min 0,0 UV-I 262 W/m 7,7 km/h (2 Bft)
30.05.2014 18:06 16,3 C 16,1 C 63 % 1022,2 hPa 0,0 l/m 0 min 0 min 0,0 UV-I 241 W/m 15,4 km/h (3 Bft)
30.05.2014 18:08 16,2 C 16,1 C 63 % 1022,2 hPa 0,0 l/m 0 min 0 min 0,0 UV-I 230 W/m 7,7 km/h (2 Bft)
30.05.2014 18:10 16,2 C 16,1 C 63 % 1022,1 hPa 0,0 l/m 0 min 0 min 0,0 UV-I 209 W/m 10,3 km/h (2 Bft)
30.05.2014 18:12 16,1 C 16,1 C 65 % 1022,1 hPa 0,0 l/m 0 min 0 min 0,0 UV-I 211 W/m 10,3 km/h (2 Bft)
30.05.2014 18:14 16,1 C 16,1 C 63 % 1022,1 hPa 0,0 l/m 0 min 0 min 0,0 UV-I 214 W/m 2,6 km/h (1 Bft)
30.05.2014 18:16 16,0 C 15,6 C 62 % 1022,2 hPa 0,0 l/m 0 min 0 min 0,0 UV-I 211 W/m 10,3 km/h (2 Bft)
30.05.2014 18:18 15,9 C 15,6 C 63 % 1022,1 hPa 0,0 l/m 0 min 0 min 0,0 UV-I 209 W/m 2,6 km/h (1 Bft)
30.05.2014 18:20 15,9 C 15,6 C 64 % 1022,1 hPa 0,0 l/m 0 min 0 min 0,0 UV-I 216 W/m 5,1 km/h (1 Bft)
30.05.2014 18:22 15,9 C 15,6 C 65 % 1022,1 hPa 0,0 l/m 0 min 0 min 0,0 UV-I 225 W/m 7,7 km/h (2 Bft)
30.05.2014 18:24 16,0 C 15,6 C 63 % 1022,2 hPa 0,0 l/m 0 min 0 min 0,0 UV-I 232 W/m 10,3 km/h (2 Bft)
30.05.2014 18:26 16,1 C 15,6 C 64 % 1022,1 hPa 0,0 l/m 2 min 0 min 0,0 UV-I 248 W/m 0,0 km/h (0 Bft)
30.05.2014 18:28 16,1 C 16,1 C 64 % 1022,1 hPa 0,0 l/m 0 min 0 min 0,0 UV-I 225 W/m 2,6 km/h (1 Bft)
30.05.2014 18:30 16,2 C 16,1 C 63 % 1022,1 hPa 0,0 l/m 0 min 0 min 0,0 UV-I 223 W/m 12,9 km/h (3 Bft)
30.05.2014 18:32 16,1 C 15,6 C 63 % 1022,1 hPa 0,0 l/m 0 min 0 min 0,0 UV-I 218 W/m 5,1 km/h (1 Bft)
30.05.2014 18:34 16,1 C 16,1 C 64 % 1022,1 hPa 0,0 l/m 0 min 0 min 0,0 UV-I 207 W/m 5,1 km/h (1 Bft)
30.05.2014 18:36 16,1 C 16,1 C 63 % 1022,2 hPa 0,0 l/m 0 min 0 min 0,0 UV-I 207 W/m 7,7 km/h (2 Bft)
30.05.2014 18:38 16,1 C 15,6 C 63 % 1022,2 hPa 0,0 l/m 0 min 0 min 0,0 UV-I 200 W/m 2,6 km/h (1 Bft)
30.05.2014 18:40 15,9 C 15,6 C 63 % 1022,1 hPa 0,0 l/m 0 min 0 min 0,0 UV-I 200 W/m 12,9 km/h (3 Bft)
30.05.2014 18:42 15,9 C 15,6 C 63 % 1022,2 hPa 0,0 l/m 0 min 0 min 0,0 UV-I 197 W/m 10,3 km/h (2 Bft)
30.05.2014 18:44 15,9 C 15,6 C 65 % 1022,1 hPa 0,0 l/m 0 min 0 min 0,0 UV-I 178 W/m 7,7 km/h (2 Bft)
30.05.2014 18:46 15,8 C 15,6 C 64 % 1022,1 hPa 0,0 l/m 0 min 0 min 0,0 UV-I 174 W/m 10,3 km/h (2 Bft)
30.05.2014 18:48 15,8 C 15,6 C 65 % 1022,1 hPa 0,0 l/m 0 min 0 min 0,0 UV-I 178 W/m 0,0 km/h (0 Bft)
30.05.2014 18:50 15,9 C 15,6 C 66 % 1022,1 hPa 0,0 l/m 0 min 0 min 0,0 UV-I 178 W/m 0,0 km/h (0 Bft)
30.05.2014 18:52 16,0 C 15,6 C 65 % 1022,0 hPa 0,0 l/m 0 min 0 min 0,0 UV-I 174 W/m 10,3 km/h (2 Bft)
30.05.2014 18:54 16,1 C 15,6 C 64 % 1022,1 hPa 0,0 l/m 0 min 0 min 0,0 UV-I 163 W/m 12,9 km/h (3 Bft)
30.05.2014 18:56 16,0 C 15,6 C 64 % 1022,2 hPa 0,0 l/m 0 min 0 min 0,0 UV-I 149 W/m 10,3 km/h (2 Bft)
30.05.2014 18:58 15,9 C 15,6 C 64 % 1022,2 hPa 0,0 l/m 0 min 0 min 0,0 UV-I 148 W/m 0,0 km/h (0 Bft)
30.05.2014 19:00 15,9 C 15,6 C 65 % 1022,1 hPa 0,0 l/m 0 min 0 min 0,0 UV-I 155 W/m 10,3 km/h (2 Bft)
30.05.2014 19:02 15,8 C 15,0 C 64 % 1022,1 hPa 0,0 l/m 0 min 0 min 0,0 UV-I 151 W/m 12,9 km/h (3 Bft)
30.05.2014 19:06 15,7 C 15,0 C 66 % 1022,1 hPa 0,0 l/m 0 min 0 min 0,0 UV-I 139 W/m 12,9 km/h (3 Bft)
30.05.2014 19:08 15,7 C 15,0 C 64 % 1022,1 hPa 0,0 l/m 0 min 0 min 0,0 UV-I 149 W/m 12,9 km/h (3 Bft)
30.05.2014 19:10 15,7 C 15,0 C 64 % 1022,2 hPa 0,0 l/m 0 min 0 min 0,0 UV-I 153 W/m 7,7 km/h (2 Bft)
30.05.2014 19:12 15,7 C 15,0 C 65 % 1022,2 hPa 0,0 l/m 0 min 0 min 0,0 UV-I 146 W/m 2,6 km/h (1 Bft)
30.05.2014 19:14 15,7 C 15,6 C 64 % 1022,2 hPa 0,0 l/m 0 min 0 min 0,0 UV-I 149 W/m 5,1 km/h (1 Bft)
30.05.2014 19:16 15,7 C 15,6 C 64 % 1022,2 hPa 0,0 l/m 0 min 0 min 0,0 UV-I 153 W/m 5,1 km/h (1 Bft)
30.05.2014 19:18 15,8 C 15,6 C 65 % 1022,2 hPa 0,0 l/m 0 min 0 min 0,0 UV-I 146 W/m 5,1 km/h (1 Bft)
30.05.2014 19:20 15,8 C 15,6 C 65 % 1022,2 hPa 0,0 l/m 0 min 0 min 0,0 UV-I 132 W/m 10,3 km/h (2 Bft)
30.05.2014 19:22 15,7 C 15,0 C 64 % 1022,2 hPa 0,0 l/m 0 min 0 min 0,0 UV-I 121 W/m 2,6 km/h (1 Bft)
30.05.2014 19:24 15,7 C 15,0 C 64 % 1022,2 hPa 0,0 l/m 0 min 0 min 0,0 UV-I 128 W/m 5,1 km/h (1 Bft)
30.05.2014 19:26 15,6 C 15,0 C 64 % 1022,2 hPa 0,0 l/m 0 min 0 min 0,0 UV-I 130 W/m 2,6 km/h (1 Bft)
30.05.2014 19:28 15,7 C 15,0 C 65 % 1022,2 hPa 0,0 l/m 0 min 0 min 0,0 UV-I 130 W/m 12,9 km/h (3 Bft)
30.05.2014 19:30 15,6 C 15,0 C 65 % 1022,2 hPa 0,0 l/m 0 min 0 min 0,0 UV-I 121 W/m 2,6 km/h (1 Bft)
30.05.2014 19:32 15,6 C 15,0 C 65 % 1022,2 hPa 0,0 l/m 0 min 0 min 0,0 UV-I 104 W/m 7,7 km/h (2 Bft)
30.05.2014 19:34 15,6 C 15,0 C 64 % 1022,3 hPa 0,0 l/m 0 min 0 min 0,0 UV-I 91 W/m 7,7 km/h (2 Bft)
30.05.2014 19:36 15,6 C 15,0 C 64 % 1022,2 hPa 0,0 l/m 0 min 0 min 0,0 UV-I 83 W/m 12,9 km/h (3 Bft)
30.05.2014 19:38 15,5 C 14,4 C 65 % 1022,3 hPa 0,0 l/m 0 min 0 min 0,0 UV-I 86 W/m 12,9 km/h (3 Bft)
30.05.2014 19:40 15,4 C 14,4 C 65 % 1022,4 hPa 0,0 l/m 0 min 0 min 0,0 UV-I 90 W/m 10,3 km/h (2 Bft)
30.05.2014 19:42 15,4 C 14,4 C 65 % 1022,4 hPa 0,0 l/m 0 min 0 min 0,0 UV-I 95 W/m 0,0 km/h (0 Bft)
30.05.2014 19:44 15,3 C 14,4 C 64 % 1022,4 hPa 0,0 l/m 0 min 0 min 0,0 UV-I 97 W/m 0,0 km/h (0 Bft)
30.05.2014 19:46 15,3 C 14,4 C 65 % 1022,4 hPa 0,0 l/m 0 min 0 min 0,0 UV-I 97 W/m 2,6 km/h (1 Bft)
30.05.2014 19:48 15,3 C 14,4 C 64 % 1022,4 hPa 0,0 l/m 0 min 0 min 0,0 UV-I 100 W/m 7,7 km/h (2 Bft)
30.05.2014 19:50 15,3 C 14,4 C 64 % 1022,4 hPa 0,0 l/m 0 min 0 min 0,0 UV-I 98 W/m 5,1 km/h (1 Bft)
30.05.2014 19:52 15,3 C 14,4 C 65 % 1022,4 hPa 0,0 l/m 0 min 0 min 0,0 UV-I 93 W/m 0,0 km/h (0 Bft)
30.05.2014 19:54 15,3 C 14,4 C 66 % 1022,4 hPa 0,0 l/m 0 min 0 min 0,0 UV-I 84 W/m 0,0 km/h (0 Bft)
30.05.2014 19:56 15,3 C 14,4 C 65 % 1022,4 hPa 0,0 l/m 0 min 0 min 0,0 UV-I 86 W/m 7,7 km/h (2 Bft)
30.05.2014 19:58 15,3 C 14,4 C 66 % 1022,4 hPa 0,0 l/m 0 min 0 min 0,0 UV-I 84 W/m 0,0 km/h (0 Bft)
30.05.2014 20:00 15,3 C 14,4 C 66 % 1022,4 hPa 0,0 l/m 0 min 0 min 0,0 UV-I 79 W/m 0,0 km/h (0 Bft)
30.05.2014 20:02 15,2 C 14,4 C 65 % 1022,4 hPa 0,0 l/m 0 min 0 min 0,0 UV-I 72 W/m 0,0 km/h (0 Bft)
30.05.2014 20:06 15,1 C 13,9 C 66 % 1022,3 hPa 0,0 l/m 0 min 0 min 0,0 UV-I 74 W/m 2,6 km/h (1 Bft)
30.05.2014 20:08 15,1 C 13,9 C 66 % 1022,4 hPa 0,0 l/m 0 min 0 min 0,0 UV-I 67 W/m 0,0 km/h (0 Bft)
30.05.2014 20:10 15,1 C 13,9 C 66 % 1022,4 hPa 0,0 l/m 0 min 0 min 0,0 UV-I 67 W/m 0,0 km/h (0 Bft)
30.05.2014 20:12 15,0 C 13,9 C 66 % 1022,4 hPa 0,0 l/m 0 min 0 min 0,0 UV-I 70 W/m 2,6 km/h (1 Bft)
30.05.2014 20:14 14,9 C 13,9 C 66 % 1022,3 hPa 0,0 l/m 0 min 0 min 0,0 UV-I 65 W/m 2,6 km/h (1 Bft)
30.05.2014 20:16 14,9 C 13,9 C 66 % 1022,3 hPa 0,0 l/m 0 min 0 min 0,0 UV-I 60 W/m 0,0 km/h (0 Bft)
30.05.2014 20:18 14,9 C 13,9 C 66 % 1022,3 hPa 0,0 l/m 0 min 0 min 0,0 UV-I 51 W/m 0,0 km/h (0 Bft)
30.05.2014 20:20 14,9 C 13,9 C 67 % 1022,4 hPa 0,0 l/m 0 min 0 min 0,0 UV-I 46 W/m 2,6 km/h (1 Bft)
30.05.2014 20:22 14,9 C 13,9 C 67 % 1022,4 hPa 0,0 l/m 0 min 0 min 0,0 UV-I 44 W/m 5,1 km/h (1 Bft)
30.05.2014 20:24 14,9 C 13,9 C 67 % 1022,4 hPa 0,0 l/m 0 min 0 min 0,0 UV-I 46 W/m 0,0 km/h (0 Bft)
30.05.2014 20:26 14,9 C 13,9 C 66 % 1022,4 hPa 0,0 l/m 0 min 0 min 0,0 UV-I 46 W/m 0,0 km/h (0 Bft)
30.05.2014 20:28 14,8 C 13,9 C 65 % 1022,3 hPa 0,0 l/m 0 min 0 min 0,0 UV-I 44 W/m 0,0 km/h (0 Bft)
30.05.2014 20:30 14,9 C 13,9 C 66 % 1022,3 hPa 0,0 l/m 0 min 0 min 0,0 UV-I 44 W/m 0,0 km/h (0 Bft)
30.05.2014 20:32 14,9 C 13,9 C 66 % 1022,3 hPa 0,0 l/m 0 min 0 min 0,0 UV-I 40 W/m 0,0 km/h (0 Bft)
30.05.2014 20:34 14,8 C 13,9 C 67 % 1022,3 hPa 0,0 l/m 0 min 0 min 0,0 UV-I 39 W/m 0,0 km/h (0 Bft)
30.05.2014 20:36 14,8 C 13,9 C 66 % 1022,4 hPa 0,0 l/m 0 min 0 min 0,0 UV-I 39 W/m 0,0 km/h (0 Bft)
30.05.2014 20:38 14,8 C 13,9 C 67 % 1022,4 hPa 0,0 l/m 0 min 0 min 0,0 UV-I 37 W/m 0,0 km/h (0 Bft)
30.05.2014 20:40 14,8 C 13,9 C 67 % 1022,4 hPa 0,0 l/m 0 min 0 min 0,0 UV-I 39 W/m 2,6 km/h (1 Bft)
30.05.2014 20:42 14,8 C 13,9 C 67 % 1022,4 hPa 0,0 l/m 0 min 0 min 0,0 UV-I 39 W/m 0,0 km/h (0 Bft)
30.05.2014 20:44 14,8 C 13,9 C 67 % 1022,4 hPa 0,0 l/m 0 min 0 min 0,0 UV-I 40 W/m 0,0 km/h (0 Bft)
30.05.2014 20:46 14,7 C 13,9 C 67 % 1022,4 hPa 0,0 l/m 0 min 0 min 0,0 UV-I 39 W/m 0,0 km/h (0 Bft)
30.05.2014 20:48 14,7 C 13,9 C 67 % 1022,4 hPa 0,0 l/m 0 min 0 min 0,0 UV-I 39 W/m 0,0 km/h (0 Bft)
30.05.2014 20:50 14,7 C 13,3 C 67 % 1022,4 hPa 0,0 l/m 0 min 0 min 0,0 UV-I 40 W/m 0,0 km/h (0 Bft)
30.05.2014 20:52 14,7 C 13,3 C 67 % 1022,4 hPa 0,0 l/m 0 min 0 min 0,0 UV-I 42 W/m 0,0 km/h (0 Bft)
30.05.2014 20:54 14,7 C 13,3 C 67 % 1022,4 hPa 0,0 l/m 0 min 0 min 0,0 UV-I 40 W/m 2,6 km/h (1 Bft)
30.05.2014 20:56 14,7 C 13,3 C 68 % 1022,3 hPa 0,0 l/m 0 min 0 min 0,0 UV-I 42 W/m 0,0 km/h (0 Bft)
30.05.2014 20:58 14,6 C 13,3 C 68 % 1022,4 hPa 0,0 l/m 2 min 0 min 0,0 UV-I 42 W/m 0,0 km/h (0 Bft)
30.05.2014 21:00 14,7 C 13,3 C 69 % 1022,3 hPa 0,0 l/m 2 min 0 min 0,0 UV-I 40 W/m 0,0 km/h (0 Bft)
30.05.2014 21:02 14,7 C 13,3 C 69 % 1022,3 hPa 0,0 l/m 2 min 0 min 0,0 UV-I 37 W/m 0,0 km/h (0 Bft)
30.05.2014 21:06 14,6 C 13,3 C 69 % 1022,3 hPa 0,0 l/m 0 min 0 min 0,0 UV-I 26 W/m 0,0 km/h (0 Bft)
30.05.2014 21:08 14,6 C 13,3 C 68 % 1022,3 hPa 0,0 l/m 0 min 0 min 0,0 UV-I 25 W/m 0,0 km/h (0 Bft)
30.05.2014 21:10 14,6 C 13,3 C 69 % 1022,4 hPa 0,0 l/m 0 min 0 min 0,0 UV-I 23 W/m 2,6 km/h (1 Bft)
30.05.2014 21:12 14,6 C 13,3 C 69 % 1022,4 hPa 0,0 l/m 0 min 0 min 0,0 UV-I 21 W/m 0,0 km/h (0 Bft)
30.05.2014 21:14 14,6 C 13,3 C 68 % 1022,4 hPa 0,0 l/m 0 min 0 min 0,0 UV-I 18 W/m 0,0 km/h (0 Bft)
30.05.2014 21:16 14,6 C 13,3 C 69 % 1022,4 hPa 0,0 l/m 0 min 0 min 0,0 UV-I 16 W/m 0,0 km/h (0 Bft)
30.05.2014 21:18 14,5 C 13,3 C 69 % 1022,4 hPa 0,0 l/m 0 min 0 min 0,0 UV-I 14 W/m 0,0 km/h (0 Bft)
30.05.2014 21:20 14,5 C 13,3 C 69 % 1022,4 hPa 0,0 l/m 0 min 0 min 0,0 UV-I 14 W/m 0,0 km/h (0 Bft)
30.05.2014 21:22 14,5 C 13,3 C 69 % 1022,4 hPa 0,0 l/m 0 min 0 min 0,0 UV-I 12 W/m 0,0 km/h (0 Bft)
30.05.2014 21:24 14,4 C 13,3 C 69 % 1022,4 hPa 0,0 l/m 0 min 0 min 0,0 UV-I 9 W/m 0,0 km/h (0 Bft)
30.05.2014 21:26 14,4 C 12,8 C 69 % 1022,3 hPa 0,0 l/m 0 min 0 min 0,0 UV-I 9 W/m 0,0 km/h (0 Bft)
30.05.2014 21:28 14,3 C 12,8 C 69 % 1022,3 hPa 0,0 l/m 0 min 0 min 0,0 UV-I 7 W/m 0,0 km/h (0 Bft)
30.05.2014 21:30 14,2 C 12,8 C 70 % 1022,3 hPa 0,0 l/m 0 min 0 min 0,0 UV-I 7 W/m 0,0 km/h (0 Bft)
30.05.2014 21:32 14,1 C 12,2 C 72 % 1022,2 hPa 0,0 l/m 0 min 0 min 0,0 UV-I 7 W/m 0,0 km/h (0 Bft)
30.05.2014 21:34 13,9 C 12,2 C 71 % 1022,3 hPa 0,0 l/m 0 min 0 min 0,0 UV-I 5 W/m 0,0 km/h (0 Bft)
30.05.2014 21:36 13,8 C 12,2 C 71 % 1022,3 hPa 0,0 l/m 0 min 0 min 0,0 UV-I 5 W/m 0,0 km/h (0 Bft)
30.05.2014 21:38 13,7 C 11,7 C 72 % 1022,3 hPa 0,0 l/m 0 min 0 min 0,0 UV-I 5 W/m 0,0 km/h (0 Bft)
30.05.2014 21:40 13,6 C 11,7 C 73 % 1022,3 hPa 0,0 l/m 0 min 0 min 0,0 UV-I 0 W/m 0,0 km/h (0 Bft)
30.05.2014 21:42 13,5 C 11,7 C 73 % 1022,4 hPa 0,0 l/m 0 min 0 min 0,0 UV-I 0 W/m 0,0 km/h (0 Bft)
30.05.2014 21:44 13,4 C 11,1 C 73 % 1022,4 hPa 0,0 l/m 0 min 0 min 0,0 UV-I 0 W/m 0,0 km/h (0 Bft)
30.05.2014 21:46 13,3 C 11,1 C 74 % 1022,4 hPa 0,0 l/m 0 min 0 min 0,0 UV-I 0 W/m 0,0 km/h (0 Bft)
30.05.2014 21:48 13,2 C 11,1 C 74 % 1022,5 hPa 0,0 l/m 0 min 0 min 0,0 UV-I 0 W/m 0,0 km/h (0 Bft)
30.05.2014 21:50 13,1 C 11,1 C 75 % 1022,5 hPa 0,0 l/m 0 min 0 min 0,0 UV-I 0 W/m 0,0 km/h (0 Bft)
30.05.2014 21:52 13,1 C 10,6 C 75 % 1022,5 hPa 0,0 l/m 0 min 0 min 0,0 UV-I 0 W/m 0,0 km/h (0 Bft)
30.05.2014 21:54 13,0 C 10,6 C 76 % 1022,5 hPa 0,0 l/m 0 min 0 min 0,0 UV-I 0 W/m 0,0 km/h (0 Bft)
30.05.2014 21:56 12,9 C 10,6 C 76 % 1022,5 hPa 0,0 l/m 0 min 0 min 0,0 UV-I 0 W/m 0,0 km/h (0 Bft)
30.05.2014 21:58 12,8 C 10,6 C 77 % 1022,5 hPa 0,0 l/m 0 min 0 min 0,0 UV-I 0 W/m 0,0 km/h (0 Bft)
30.05.2014 22:00 12,7 C 10,6 C 77 % 1022,5 hPa 0,0 l/m 0 min 0 min 0,0 UV-I 0 W/m 0,0 km/h (0 Bft)
30.05.2014 22:02 12,7 C 10,6 C 77 % 1022,5 hPa 0,0 l/m 0 min 0 min 0,0 UV-I 0 W/m 0,0 km/h (0 Bft)
30.05.2014 22:06 12,6 C 10,0 C 76 % 1022,5 hPa 0,0 l/m 0 min 0 min 0,0 UV-I 0 W/m 0,0 km/h (0 Bft)
30.05.2014 22:08 12,6 C 10,0 C 76 % 1022,5 hPa 0,0 l/m 0 min 0 min 0,0 UV-I 0 W/m 0,0 km/h (0 Bft)
30.05.2014 22:10 12,5 C 10,0 C 77 % 1022,5 hPa 0,0 l/m 0 min 0 min 0,0 UV-I 0 W/m 0,0 km/h (0 Bft)
30.05.2014 22:12 12,5 C 10,0 C 77 % 1022,5 hPa 0,0 l/m 0 min 0 min 0,0 UV-I 0 W/m 0,0 km/h (0 Bft)
30.05.2014 22:14 12,4 C 10,0 C 77 % 1022,5 hPa 0,0 l/m 0 min 0 min 0,0 UV-I 0 W/m 0,0 km/h (0 Bft)
30.05.2014 22:16 12,3 C 10,0 C 78 % 1022,6 hPa 0,0 l/m 0 min 0 min 0,0 UV-I 0 W/m 0,0 km/h (0 Bft)
30.05.2014 22:18 12,2 C 10,0 C 78 % 1022,6 hPa 0,0 l/m 0 min 0 min 0,0 UV-I 0 W/m 0,0 km/h (0 Bft)
30.05.2014 22:20 12,1 C 10,0 C 79 % 1022,6 hPa 0,0 l/m 0 min 0 min 0,0 UV-I 0 W/m 0,0 km/h (0 Bft)
30.05.2014 22:22 11,9 C 9,4 C 80 % 1022,6 hPa 0,0 l/m 0 min 0 min 0,0 UV-I 0 W/m 0,0 km/h (0 Bft)
30.05.2014 22:24 11,9 C 9,4 C 80 % 1022,6 hPa 0,0 l/m 0 min 0 min 0,0 UV-I 0 W/m 0,0 km/h (0 Bft)
30.05.2014 22:26 11,8 C 9,4 C 80 % 1022,6 hPa 0,0 l/m 0 min 0 min 0,0 UV-I 0 W/m 0,0 km/h (0 Bft)
30.05.2014 22:28 11,8 C 9,4 C 80 % 1022,6 hPa 0,0 l/m 0 min 0 min 0,0 UV-I 0 W/m 0,0 km/h (0 Bft)
30.05.2014 22:30 11,7 C 9,4 C 80 % 1022,6 hPa 0,0 l/m 0 min 0 min 0,0 UV-I 0 W/m 0,0 km/h (0 Bft)
30.05.2014 22:32 11,7 C 9,4 C 80 % 1022,7 hPa 0,0 l/m 0 min 0 min 0,0 UV-I 0 W/m 0,0 km/h (0 Bft)
30.05.2014 22:34 11,6 C 9,4 C 80 % 1022,6 hPa 0,0 l/m 0 min 0 min 0,0 UV-I 0 W/m 0,0 km/h (0 Bft)
30.05.2014 22:36 11,5 C 9,4 C 81 % 1022,6 hPa 0,0 l/m 0 min 0 min 0,0 UV-I 0 W/m 0,0 km/h (0 Bft)
30.05.2014 22:38 11,4 C 9,4 C 82 % 1022,6 hPa 0,0 l/m 0 min 0 min 0,0 UV-I 0 W/m 0,0 km/h (0 Bft)
30.05.2014 22:40 11,3 C 9,4 C 82 % 1022,6 hPa 0,0 l/m 0 min 0 min 0,0 UV-I 0 W/m 0,0 km/h (0 Bft)
30.05.2014 22:42 11,3 C 9,4 C 82 % 1022,6 hPa 0,0 l/m 0 min 0 min 0,0 UV-I 0 W/m 0,0 km/h (0 Bft)
30.05.2014 22:44 11,2 C 9,4 C 83 % 1022,6 hPa 0,0 l/m 0 min 0 min 0,0 UV-I 0 W/m 0,0 km/h (0 Bft)
30.05.2014 22:46 11,2 C 9,4 C 83 % 1022,6 hPa 0,0 l/m 0 min 0 min 0,0 UV-I 0 W/m 0,0 km/h (0 Bft)
30.05.2014 22:48 11,2 C 8,9 C 83 % 1022,7 hPa 0,0 l/m 0 min 0 min 0,0 UV-I 0 W/m 0,0 km/h (0 Bft)
30.05.2014 22:50 11,1 C 8,9 C 83 % 1022,6 hPa 0,0 l/m 0 min 0 min 0,0 UV-I 0 W/m 0,0 km/h (0 Bft)
30.05.2014 22:52 11,0 C 8,9 C 84 % 1022,7 hPa 0,0 l/m 0 min 0 min 0,0 UV-I 0 W/m 0,0 km/h (0 Bft)
30.05.2014 22:54 11,0 C 8,9 C 84 % 1022,7 hPa 0,0 l/m 0 min 0 min 0,0 UV-I 0 W/m 0,0 km/h (0 Bft)
30.05.2014 22:56 10,9 C 8,9 C 84 % 1022,6 hPa 0,0 l/m 0 min 0 min 0,0 UV-I 0 W/m 0,0 km/h (0 Bft)
30.05.2014 22:58 10,9 C 8,9 C 84 % 1022,6 hPa 0,0 l/m 0 min 0 min 0,0 UV-I 0 W/m 0,0 km/h (0 Bft)
30.05.2014 23:00 10,9 C 8,9 C 84 % 1022,6 hPa 0,0 l/m 0 min 0 min 0,0 UV-I 0 W/m 0,0 km/h (0 Bft)
30.05.2014 23:02 10,8 C 8,9 C 85 % 1022,7 hPa 0,0 l/m 0 min 0 min 0,0 UV-I 0 W/m 0,0 km/h (0 Bft)
30.05.2014 23:06 10,7 C 8,9 C 85 % 1022,6 hPa 0,0 l/m 0 min 0 min 0,0 UV-I 0 W/m 0,0 km/h (0 Bft)
30.05.2014 23:08 10,7 C 8,9 C 85 % 1022,7 hPa 0,0 l/m 0 min 0 min 0,0 UV-I 0 W/m 0,0 km/h (0 Bft)
30.05.2014 23:10 10,6 C 8,9 C 86 % 1022,6 hPa 0,0 l/m 0 min 0 min 0,0 UV-I 0 W/m 0,0 km/h (0 Bft)
30.05.2014 23:12 10,6 C 8,3 C 86 % 1022,6 hPa 0,0 l/m 0 min 0 min 0,0 UV-I 0 W/m 0,0 km/h (0 Bft)
30.05.2014 23:14 10,6 C 8,3 C 86 % 1022,6 hPa 0,0 l/m 0 min 0 min 0,0 UV-I 0 W/m 0,0 km/h (0 Bft)
30.05.2014 23:16 10,5 C 8,3 C 86 % 1022,6 hPa 0,0 l/m 0 min 0 min 0,0 UV-I 0 W/m 0,0 km/h (0 Bft)
30.05.2014 23:18 10,5 C 8,3 C 87 % 1022,6 hPa 0,0 l/m 0 min 0 min 0,0 UV-I 0 W/m 0,0 km/h (0 Bft)
30.05.2014 23:20 10,4 C 8,3 C 87 % 1022,7 hPa 0,0 l/m 0 min 0 min 0,0 UV-I 0 W/m 0,0 km/h (0 Bft)
30.05.2014 23:22 10,4 C 8,3 C 87 % 1022,7 hPa 0,0 l/m 0 min 0 min 0,0 UV-I 0 W/m 0,0 km/h (0 Bft)
30.05.2014 23:24 10,3 C 8,3 C 87 % 1022,7 hPa 0,0 l/m 0 min 0 min 0,0 UV-I 0 W/m 0,0 km/h (0 Bft)
30.05.2014 23:26 10,3 C 8,3 C 87 % 1022,7 hPa 0,0 l/m 0 min 0 min 0,0 UV-I 0 W/m 0,0 km/h (0 Bft)
30.05.2014 23:28 10,3 C 8,3 C 88 % 1022,7 hPa 0,0 l/m 0 min 0 min 0,0 UV-I 0 W/m 0,0 km/h (0 Bft)
30.05.2014 23:30 10,2 C 8,3 C 88 % 1022,7 hPa 0,0 l/m 0 min 0 min 0,0 UV-I 0 W/m 0,0 km/h (0 Bft)
30.05.2014 23:32 10,2 C 8,3 C 88 % 1022,8 hPa 0,0 l/m 0 min 0 min 0,0 UV-I 0 W/m 0,0 km/h (0 Bft)
30.05.2014 23:34 10,2 C 8,3 C 88 % 1022,8 hPa 0,0 l/m 0 min 0 min 0,0 UV-I 0 W/m 0,0 km/h (0 Bft)
30.05.2014 23:36 10,1 C 8,3 C 88 % 1022,9 hPa 0,0 l/m 0 min 0 min 0,0 UV-I 0 W/m 0,0 km/h (0 Bft)
30.05.2014 23:38 10,1 C 8,3 C 88 % 1022,8 hPa 0,0 l/m 0 min 0 min 0,0 UV-I 0 W/m 0,0 km/h (0 Bft)
30.05.2014 23:40 10,1 C 8,3 C 88 % 1022,9 hPa 0,0 l/m 0 min 0 min 0,0 UV-I 0 W/m 0,0 km/h (0 Bft)
30.05.2014 23:42 10,0 C 8,3 C 88 % 1022,8 hPa 0,0 l/m 0 min 0 min 0,0 UV-I 0 W/m 0,0 km/h (0 Bft)
30.05.2014 23:44 10,0 C 8,3 C 88 % 1022,8 hPa 0,0 l/m 0 min 0 min 0,0 UV-I 0 W/m 0,0 km/h (0 Bft)
30.05.2014 23:46 9,9 C 8,3 C 89 % 1022,9 hPa 0,0 l/m 0 min 0 min 0,0 UV-I 0 W/m 0,0 km/h (0 Bft)
30.05.2014 23:48 9,9 C 7,8 C 89 % 1022,9 hPa 0,0 l/m 0 min 0 min 0,0 UV-I 0 W/m 0,0 km/h (0 Bft)
30.05.2014 23:50 9,8 C 7,8 C 89 % 1022,9 hPa 0,0 l/m 0 min 0 min 0,0 UV-I 0 W/m 0,0 km/h (0 Bft)
30.05.2014 23:52 9,8 C 7,8 C 89 % 1022,9 hPa 0,0 l/m 0 min 0 min 0,0 UV-I 0 W/m 0,0 km/h (0 Bft)
30.05.2014 23:54 9,8 C 7,8 C 90 % 1022,9 hPa 0,0 l/m 0 min 0 min 0,0 UV-I 0 W/m 0,0 km/h (0 Bft)
30.05.2014 23:56 9,7 C 7,8 C 90 % 1022,9 hPa 0,0 l/m 0 min 0 min 0,0 UV-I 0 W/m 0,0 km/h (0 Bft)
30.05.2014 23:58 9,7 C 7,8 C 90 % 1022,9 hPa 0,0 l/m 0 min 0 min 0,0 UV-I 0 W/m 0,0 km/h (0 Bft)
_ Min-Zeit 05:02 23:48 15:38 01:40 - - - - - 00:02
Minimum _ 9,7 C 7,8 C 56 % 1019,4 hPa - - - - - 0,0 km/h (0 Bft)
_ Max-Zeit 15:34 15:32 00:00 23:36 00:00 07:54 00:00 12:44 13:12 09:56
Maximum _ 18,4 C 24,4 C 95 % 1022,9 hPa 0,0 l/m 2 min 0 min 4,9 UV-I 1174 W/m 23,2 km/h
O-NO (4 Bft)
Durchschnitt _ 13,2 C 12,8 C 77 % 1021,4 hPa #0,0 l/m #5:54 h #0 min. 2,2 UV-I 350 W/m 5,7 km/h (1 Bft)
© 2014 W. Hausmann